<?xml version="1.0" encoding="UTF-8" standalone="no" ?>
<gpx xmlns="http://www.topografix.com/GPX/1/1" xmlns:xsi="http://www.w3.org/2001/XMLSchema-instance" xsi:schemaLocation="http://www.topografix.com/GPX/1/1 http://www.topografix.com/GPX/1/1/gpx.xsd" version="1.1" creator="VisuGPX - https://www.visugpx.com">
  <metadata>
    <name>Course à pied le midi</name>
  </metadata>
  <trk>
    <name><![CDATA[Course à pied le midi_1]]></name>
    <trkseg>
      <trkpt lat="43.64766" lon="1.37618">
        <ele>146</ele>
        <time>2025-04-16T10:05:54Z</time>
      </trkpt>
      <trkpt lat="43.64768" lon="1.37614">
        <ele>146</ele>
        <time>2025-04-16T10:05:55Z</time>
      </trkpt>
      <trkpt lat="43.64768" lon="1.37614">
        <ele>146</ele>
        <time>2025-04-16T10:05:56Z</time>
      </trkpt>
      <trkpt lat="43.64771" lon="1.37612">
        <ele>146</ele>
        <time>2025-04-16T10:05:57Z</time>
      </trkpt>
      <trkpt lat="43.64772" lon="1.3761">
        <ele>145</ele>
        <time>2025-04-16T10:05:58Z</time>
      </trkpt>
      <trkpt lat="43.64774" lon="1.37608">
        <ele>145</ele>
        <time>2025-04-16T10:05:59Z</time>
      </trkpt>
      <trkpt lat="43.64777" lon="1.37607">
        <ele>146</ele>
        <time>2025-04-16T10:06:00Z</time>
      </trkpt>
      <trkpt lat="43.64777" lon="1.37607">
        <ele>146</ele>
        <time>2025-04-16T10:06:01Z</time>
      </trkpt>
      <trkpt lat="43.6478" lon="1.37606">
        <ele>146</ele>
        <time>2025-04-16T10:06:02Z</time>
      </trkpt>
      <trkpt lat="43.6478" lon="1.37606">
        <ele>146</ele>
        <time>2025-04-16T10:06:03Z</time>
      </trkpt>
      <trkpt lat="43.64784" lon="1.37603">
        <ele>146</ele>
        <time>2025-04-16T10:06:04Z</time>
      </trkpt>
      <trkpt lat="43.64784" lon="1.37603">
        <ele>146</ele>
        <time>2025-04-16T10:06:05Z</time>
      </trkpt>
      <trkpt lat="43.64787" lon="1.37602">
        <ele>146</ele>
        <time>2025-04-16T10:06:06Z</time>
      </trkpt>
      <trkpt lat="43.64789" lon="1.37601">
        <ele>146</ele>
        <time>2025-04-16T10:06:07Z</time>
      </trkpt>
      <trkpt lat="43.6479" lon="1.37601">
        <ele>146</ele>
        <time>2025-04-16T10:06:08Z</time>
      </trkpt>
      <trkpt lat="43.64793" lon="1.376">
        <ele>146</ele>
        <time>2025-04-16T10:06:09Z</time>
      </trkpt>
      <trkpt lat="43.64795" lon="1.37599">
        <ele>146</ele>
        <time>2025-04-16T10:06:10Z</time>
      </trkpt>
      <trkpt lat="43.64798" lon="1.37599">
        <ele>146</ele>
        <time>2025-04-16T10:06:11Z</time>
      </trkpt>
      <trkpt lat="43.648" lon="1.37599">
        <ele>146</ele>
        <time>2025-04-16T10:06:12Z</time>
      </trkpt>
      <trkpt lat="43.64803" lon="1.376">
        <ele>146</ele>
        <time>2025-04-16T10:06:13Z</time>
      </trkpt>
      <trkpt lat="43.64805" lon="1.376">
        <ele>146</ele>
        <time>2025-04-16T10:06:14Z</time>
      </trkpt>
      <trkpt lat="43.64806" lon="1.37601">
        <ele>146</ele>
        <time>2025-04-16T10:06:15Z</time>
      </trkpt>
      <trkpt lat="43.64808" lon="1.37601">
        <ele>146</ele>
        <time>2025-04-16T10:06:16Z</time>
      </trkpt>
      <trkpt lat="43.6481" lon="1.37602">
        <ele>146</ele>
        <time>2025-04-16T10:06:17Z</time>
      </trkpt>
      <trkpt lat="43.64812" lon="1.37602">
        <ele>146</ele>
        <time>2025-04-16T10:06:18Z</time>
      </trkpt>
      <trkpt lat="43.64814" lon="1.37603">
        <ele>146</ele>
        <time>2025-04-16T10:06:19Z</time>
      </trkpt>
      <trkpt lat="43.64816" lon="1.37604">
        <ele>146</ele>
        <time>2025-04-16T10:06:20Z</time>
      </trkpt>
      <trkpt lat="43.64818" lon="1.37605">
        <ele>146</ele>
        <time>2025-04-16T10:06:21Z</time>
      </trkpt>
      <trkpt lat="43.64821" lon="1.37607">
        <ele>146</ele>
        <time>2025-04-16T10:06:22Z</time>
      </trkpt>
      <trkpt lat="43.64824" lon="1.37608">
        <ele>146</ele>
        <time>2025-04-16T10:06:23Z</time>
      </trkpt>
      <trkpt lat="43.64826" lon="1.3761">
        <ele>146</ele>
        <time>2025-04-16T10:06:24Z</time>
      </trkpt>
      <trkpt lat="43.64826" lon="1.3761">
        <ele>146</ele>
        <time>2025-04-16T10:06:25Z</time>
      </trkpt>
      <trkpt lat="43.64829" lon="1.37612">
        <ele>146</ele>
        <time>2025-04-16T10:06:26Z</time>
      </trkpt>
      <trkpt lat="43.64831" lon="1.37613">
        <ele>146</ele>
        <time>2025-04-16T10:06:27Z</time>
      </trkpt>
      <trkpt lat="43.64834" lon="1.37613">
        <ele>146</ele>
        <time>2025-04-16T10:06:28Z</time>
      </trkpt>
      <trkpt lat="43.64836" lon="1.37615">
        <ele>146</ele>
        <time>2025-04-16T10:06:29Z</time>
      </trkpt>
      <trkpt lat="43.64839" lon="1.37617">
        <ele>146</ele>
        <time>2025-04-16T10:06:30Z</time>
      </trkpt>
      <trkpt lat="43.64841" lon="1.3762">
        <ele>146</ele>
        <time>2025-04-16T10:06:31Z</time>
      </trkpt>
      <trkpt lat="43.64844" lon="1.37622">
        <ele>146</ele>
        <time>2025-04-16T10:06:32Z</time>
      </trkpt>
      <trkpt lat="43.64847" lon="1.37626">
        <ele>146</ele>
        <time>2025-04-16T10:06:33Z</time>
      </trkpt>
      <trkpt lat="43.6485" lon="1.37629">
        <ele>146</ele>
        <time>2025-04-16T10:06:34Z</time>
      </trkpt>
      <trkpt lat="43.64853" lon="1.37631">
        <ele>145</ele>
        <time>2025-04-16T10:06:35Z</time>
      </trkpt>
      <trkpt lat="43.64855" lon="1.37634">
        <ele>145</ele>
        <time>2025-04-16T10:06:36Z</time>
      </trkpt>
      <trkpt lat="43.64858" lon="1.37636">
        <ele>145</ele>
        <time>2025-04-16T10:06:37Z</time>
      </trkpt>
      <trkpt lat="43.6486" lon="1.37639">
        <ele>145</ele>
        <time>2025-04-16T10:06:38Z</time>
      </trkpt>
      <trkpt lat="43.64863" lon="1.37641">
        <ele>145</ele>
        <time>2025-04-16T10:06:39Z</time>
      </trkpt>
      <trkpt lat="43.64865" lon="1.37643">
        <ele>145</ele>
        <time>2025-04-16T10:06:40Z</time>
      </trkpt>
      <trkpt lat="43.64867" lon="1.37645">
        <ele>145</ele>
        <time>2025-04-16T10:06:41Z</time>
      </trkpt>
      <trkpt lat="43.64869" lon="1.37647">
        <ele>145</ele>
        <time>2025-04-16T10:06:42Z</time>
      </trkpt>
      <trkpt lat="43.64872" lon="1.37649">
        <ele>145</ele>
        <time>2025-04-16T10:06:43Z</time>
      </trkpt>
      <trkpt lat="43.64874" lon="1.37651">
        <ele>145</ele>
        <time>2025-04-16T10:06:44Z</time>
      </trkpt>
      <trkpt lat="43.64876" lon="1.37653">
        <ele>145</ele>
        <time>2025-04-16T10:06:45Z</time>
      </trkpt>
      <trkpt lat="43.64878" lon="1.37656">
        <ele>145</ele>
        <time>2025-04-16T10:06:46Z</time>
      </trkpt>
      <trkpt lat="43.64879" lon="1.3766">
        <ele>145</ele>
        <time>2025-04-16T10:06:47Z</time>
      </trkpt>
      <trkpt lat="43.6488" lon="1.37663">
        <ele>145</ele>
        <time>2025-04-16T10:06:48Z</time>
      </trkpt>
      <trkpt lat="43.64881" lon="1.37667">
        <ele>145</ele>
        <time>2025-04-16T10:06:49Z</time>
      </trkpt>
      <trkpt lat="43.64881" lon="1.37671">
        <ele>145</ele>
        <time>2025-04-16T10:06:50Z</time>
      </trkpt>
      <trkpt lat="43.6488" lon="1.37675">
        <ele>145</ele>
        <time>2025-04-16T10:06:51Z</time>
      </trkpt>
      <trkpt lat="43.64881" lon="1.37679">
        <ele>145</ele>
        <time>2025-04-16T10:06:52Z</time>
      </trkpt>
      <trkpt lat="43.64882" lon="1.37682">
        <ele>145</ele>
        <time>2025-04-16T10:06:53Z</time>
      </trkpt>
      <trkpt lat="43.64882" lon="1.37686">
        <ele>145</ele>
        <time>2025-04-16T10:06:54Z</time>
      </trkpt>
      <trkpt lat="43.64883" lon="1.37689">
        <ele>145</ele>
        <time>2025-04-16T10:06:55Z</time>
      </trkpt>
      <trkpt lat="43.64884" lon="1.37693">
        <ele>145</ele>
        <time>2025-04-16T10:06:56Z</time>
      </trkpt>
      <trkpt lat="43.64885" lon="1.37697">
        <ele>145</ele>
        <time>2025-04-16T10:06:57Z</time>
      </trkpt>
      <trkpt lat="43.64886" lon="1.37701">
        <ele>145</ele>
        <time>2025-04-16T10:06:58Z</time>
      </trkpt>
      <trkpt lat="43.64887" lon="1.37704">
        <ele>145</ele>
        <time>2025-04-16T10:06:59Z</time>
      </trkpt>
      <trkpt lat="43.64888" lon="1.37707">
        <ele>145</ele>
        <time>2025-04-16T10:07:00Z</time>
      </trkpt>
      <trkpt lat="43.64889" lon="1.3771">
        <ele>145</ele>
        <time>2025-04-16T10:07:01Z</time>
      </trkpt>
      <trkpt lat="43.6489" lon="1.37713">
        <ele>145</ele>
        <time>2025-04-16T10:07:02Z</time>
      </trkpt>
      <trkpt lat="43.64891" lon="1.37716">
        <ele>145</ele>
        <time>2025-04-16T10:07:03Z</time>
      </trkpt>
      <trkpt lat="43.64891" lon="1.37719">
        <ele>145</ele>
        <time>2025-04-16T10:07:04Z</time>
      </trkpt>
      <trkpt lat="43.64892" lon="1.37722">
        <ele>145</ele>
        <time>2025-04-16T10:07:05Z</time>
      </trkpt>
      <trkpt lat="43.64892" lon="1.37725">
        <ele>144</ele>
        <time>2025-04-16T10:07:06Z</time>
      </trkpt>
      <trkpt lat="43.64893" lon="1.37728">
        <ele>145</ele>
        <time>2025-04-16T10:07:07Z</time>
      </trkpt>
      <trkpt lat="43.64894" lon="1.37731">
        <ele>145</ele>
        <time>2025-04-16T10:07:08Z</time>
      </trkpt>
      <trkpt lat="43.64895" lon="1.37735">
        <ele>145</ele>
        <time>2025-04-16T10:07:09Z</time>
      </trkpt>
      <trkpt lat="43.64895" lon="1.37738">
        <ele>145</ele>
        <time>2025-04-16T10:07:10Z</time>
      </trkpt>
      <trkpt lat="43.64896" lon="1.37741">
        <ele>145</ele>
        <time>2025-04-16T10:07:11Z</time>
      </trkpt>
      <trkpt lat="43.64898" lon="1.37745">
        <ele>145</ele>
        <time>2025-04-16T10:07:12Z</time>
      </trkpt>
      <trkpt lat="43.64898" lon="1.37748">
        <ele>145</ele>
        <time>2025-04-16T10:07:13Z</time>
      </trkpt>
      <trkpt lat="43.64898" lon="1.37751">
        <ele>145</ele>
        <time>2025-04-16T10:07:14Z</time>
      </trkpt>
      <trkpt lat="43.649" lon="1.37754">
        <ele>145</ele>
        <time>2025-04-16T10:07:15Z</time>
      </trkpt>
      <trkpt lat="43.649" lon="1.37758">
        <ele>145</ele>
        <time>2025-04-16T10:07:16Z</time>
      </trkpt>
      <trkpt lat="43.64901" lon="1.37761">
        <ele>144</ele>
        <time>2025-04-16T10:07:17Z</time>
      </trkpt>
      <trkpt lat="43.64901" lon="1.37764">
        <ele>144</ele>
        <time>2025-04-16T10:07:18Z</time>
      </trkpt>
      <trkpt lat="43.64903" lon="1.37767">
        <ele>144</ele>
        <time>2025-04-16T10:07:19Z</time>
      </trkpt>
      <trkpt lat="43.64904" lon="1.3777">
        <ele>144</ele>
        <time>2025-04-16T10:07:20Z</time>
      </trkpt>
      <trkpt lat="43.64905" lon="1.37773">
        <ele>144</ele>
        <time>2025-04-16T10:07:21Z</time>
      </trkpt>
      <trkpt lat="43.64906" lon="1.37776">
        <ele>144</ele>
        <time>2025-04-16T10:07:22Z</time>
      </trkpt>
      <trkpt lat="43.64906" lon="1.3778">
        <ele>144</ele>
        <time>2025-04-16T10:07:23Z</time>
      </trkpt>
      <trkpt lat="43.64907" lon="1.37783">
        <ele>144</ele>
        <time>2025-04-16T10:07:24Z</time>
      </trkpt>
      <trkpt lat="43.64907" lon="1.37787">
        <ele>144</ele>
        <time>2025-04-16T10:07:25Z</time>
      </trkpt>
      <trkpt lat="43.64908" lon="1.3779">
        <ele>144</ele>
        <time>2025-04-16T10:07:26Z</time>
      </trkpt>
      <trkpt lat="43.64909" lon="1.37793">
        <ele>145</ele>
        <time>2025-04-16T10:07:27Z</time>
      </trkpt>
      <trkpt lat="43.6491" lon="1.37796">
        <ele>145</ele>
        <time>2025-04-16T10:07:28Z</time>
      </trkpt>
      <trkpt lat="43.6491" lon="1.37799">
        <ele>145</ele>
        <time>2025-04-16T10:07:29Z</time>
      </trkpt>
      <trkpt lat="43.64911" lon="1.37802">
        <ele>145</ele>
        <time>2025-04-16T10:07:30Z</time>
      </trkpt>
      <trkpt lat="43.64912" lon="1.37806">
        <ele>144</ele>
        <time>2025-04-16T10:07:31Z</time>
      </trkpt>
      <trkpt lat="43.64913" lon="1.37809">
        <ele>144</ele>
        <time>2025-04-16T10:07:32Z</time>
      </trkpt>
      <trkpt lat="43.64914" lon="1.37812">
        <ele>145</ele>
        <time>2025-04-16T10:07:33Z</time>
      </trkpt>
      <trkpt lat="43.64915" lon="1.37816">
        <ele>145</ele>
        <time>2025-04-16T10:07:34Z</time>
      </trkpt>
      <trkpt lat="43.64915" lon="1.37819">
        <ele>145</ele>
        <time>2025-04-16T10:07:35Z</time>
      </trkpt>
      <trkpt lat="43.64915" lon="1.37822">
        <ele>145</ele>
        <time>2025-04-16T10:07:36Z</time>
      </trkpt>
      <trkpt lat="43.64916" lon="1.37825">
        <ele>145</ele>
        <time>2025-04-16T10:07:37Z</time>
      </trkpt>
      <trkpt lat="43.64917" lon="1.37829">
        <ele>145</ele>
        <time>2025-04-16T10:07:38Z</time>
      </trkpt>
      <trkpt lat="43.64918" lon="1.37832">
        <ele>145</ele>
        <time>2025-04-16T10:07:39Z</time>
      </trkpt>
      <trkpt lat="43.64919" lon="1.37836">
        <ele>144</ele>
        <time>2025-04-16T10:07:40Z</time>
      </trkpt>
      <trkpt lat="43.6492" lon="1.37839">
        <ele>144</ele>
        <time>2025-04-16T10:07:41Z</time>
      </trkpt>
      <trkpt lat="43.64921" lon="1.37843">
        <ele>144</ele>
        <time>2025-04-16T10:07:42Z</time>
      </trkpt>
      <trkpt lat="43.64921" lon="1.37847">
        <ele>144</ele>
        <time>2025-04-16T10:07:43Z</time>
      </trkpt>
      <trkpt lat="43.64922" lon="1.3785">
        <ele>144</ele>
        <time>2025-04-16T10:07:44Z</time>
      </trkpt>
      <trkpt lat="43.64923" lon="1.37853">
        <ele>144</ele>
        <time>2025-04-16T10:07:45Z</time>
      </trkpt>
      <trkpt lat="43.64923" lon="1.37857">
        <ele>144</ele>
        <time>2025-04-16T10:07:46Z</time>
      </trkpt>
      <trkpt lat="43.64924" lon="1.3786">
        <ele>144</ele>
        <time>2025-04-16T10:07:47Z</time>
      </trkpt>
      <trkpt lat="43.64925" lon="1.37864">
        <ele>144</ele>
        <time>2025-04-16T10:07:48Z</time>
      </trkpt>
      <trkpt lat="43.64925" lon="1.37867">
        <ele>144</ele>
        <time>2025-04-16T10:07:49Z</time>
      </trkpt>
      <trkpt lat="43.64925" lon="1.3787">
        <ele>144</ele>
        <time>2025-04-16T10:07:50Z</time>
      </trkpt>
      <trkpt lat="43.64926" lon="1.37873">
        <ele>144</ele>
        <time>2025-04-16T10:07:51Z</time>
      </trkpt>
      <trkpt lat="43.64927" lon="1.37875">
        <ele>144</ele>
        <time>2025-04-16T10:07:52Z</time>
      </trkpt>
      <trkpt lat="43.64927" lon="1.37879">
        <ele>144</ele>
        <time>2025-04-16T10:07:53Z</time>
      </trkpt>
      <trkpt lat="43.64928" lon="1.37881">
        <ele>144</ele>
        <time>2025-04-16T10:07:54Z</time>
      </trkpt>
      <trkpt lat="43.6493" lon="1.37885">
        <ele>144</ele>
        <time>2025-04-16T10:07:55Z</time>
      </trkpt>
      <trkpt lat="43.6493" lon="1.37888">
        <ele>144</ele>
        <time>2025-04-16T10:07:56Z</time>
      </trkpt>
      <trkpt lat="43.64931" lon="1.37892">
        <ele>144</ele>
        <time>2025-04-16T10:07:57Z</time>
      </trkpt>
      <trkpt lat="43.64932" lon="1.37895">
        <ele>143</ele>
        <time>2025-04-16T10:07:58Z</time>
      </trkpt>
      <trkpt lat="43.64933" lon="1.37899">
        <ele>143</ele>
        <time>2025-04-16T10:07:59Z</time>
      </trkpt>
      <trkpt lat="43.64934" lon="1.37902">
        <ele>143</ele>
        <time>2025-04-16T10:08:00Z</time>
      </trkpt>
      <trkpt lat="43.64935" lon="1.37905">
        <ele>143</ele>
        <time>2025-04-16T10:08:01Z</time>
      </trkpt>
      <trkpt lat="43.64936" lon="1.37909">
        <ele>143</ele>
        <time>2025-04-16T10:08:02Z</time>
      </trkpt>
      <trkpt lat="43.64937" lon="1.37912">
        <ele>143</ele>
        <time>2025-04-16T10:08:03Z</time>
      </trkpt>
      <trkpt lat="43.64937" lon="1.37916">
        <ele>143</ele>
        <time>2025-04-16T10:08:04Z</time>
      </trkpt>
      <trkpt lat="43.64938" lon="1.37919">
        <ele>143</ele>
        <time>2025-04-16T10:08:05Z</time>
      </trkpt>
      <trkpt lat="43.64939" lon="1.37922">
        <ele>143</ele>
        <time>2025-04-16T10:08:06Z</time>
      </trkpt>
      <trkpt lat="43.6494" lon="1.37925">
        <ele>143</ele>
        <time>2025-04-16T10:08:07Z</time>
      </trkpt>
      <trkpt lat="43.64941" lon="1.37928">
        <ele>143</ele>
        <time>2025-04-16T10:08:08Z</time>
      </trkpt>
      <trkpt lat="43.64943" lon="1.37932">
        <ele>143</ele>
        <time>2025-04-16T10:08:09Z</time>
      </trkpt>
      <trkpt lat="43.64943" lon="1.37935">
        <ele>143</ele>
        <time>2025-04-16T10:08:10Z</time>
      </trkpt>
      <trkpt lat="43.64944" lon="1.37938">
        <ele>143</ele>
        <time>2025-04-16T10:08:11Z</time>
      </trkpt>
      <trkpt lat="43.64945" lon="1.37941">
        <ele>143</ele>
        <time>2025-04-16T10:08:12Z</time>
      </trkpt>
      <trkpt lat="43.64945" lon="1.37944">
        <ele>143</ele>
        <time>2025-04-16T10:08:13Z</time>
      </trkpt>
      <trkpt lat="43.64945" lon="1.37947">
        <ele>143</ele>
        <time>2025-04-16T10:08:14Z</time>
      </trkpt>
      <trkpt lat="43.64946" lon="1.3795">
        <ele>143</ele>
        <time>2025-04-16T10:08:15Z</time>
      </trkpt>
      <trkpt lat="43.64947" lon="1.37953">
        <ele>143</ele>
        <time>2025-04-16T10:08:16Z</time>
      </trkpt>
      <trkpt lat="43.64948" lon="1.37957">
        <ele>143</ele>
        <time>2025-04-16T10:08:17Z</time>
      </trkpt>
      <trkpt lat="43.64948" lon="1.37961">
        <ele>143</ele>
        <time>2025-04-16T10:08:18Z</time>
      </trkpt>
      <trkpt lat="43.64948" lon="1.37964">
        <ele>143</ele>
        <time>2025-04-16T10:08:19Z</time>
      </trkpt>
      <trkpt lat="43.64949" lon="1.37968">
        <ele>143</ele>
        <time>2025-04-16T10:08:20Z</time>
      </trkpt>
      <trkpt lat="43.64949" lon="1.37971">
        <ele>143</ele>
        <time>2025-04-16T10:08:21Z</time>
      </trkpt>
      <trkpt lat="43.6495" lon="1.37975">
        <ele>143</ele>
        <time>2025-04-16T10:08:22Z</time>
      </trkpt>
      <trkpt lat="43.64951" lon="1.37979">
        <ele>142</ele>
        <time>2025-04-16T10:08:23Z</time>
      </trkpt>
      <trkpt lat="43.64951" lon="1.37983">
        <ele>142</ele>
        <time>2025-04-16T10:08:24Z</time>
      </trkpt>
      <trkpt lat="43.64952" lon="1.37987">
        <ele>142</ele>
        <time>2025-04-16T10:08:25Z</time>
      </trkpt>
      <trkpt lat="43.64953" lon="1.3799">
        <ele>142</ele>
        <time>2025-04-16T10:08:26Z</time>
      </trkpt>
      <trkpt lat="43.64955" lon="1.37992">
        <ele>142</ele>
        <time>2025-04-16T10:08:27Z</time>
      </trkpt>
      <trkpt lat="43.64956" lon="1.37994">
        <ele>142</ele>
        <time>2025-04-16T10:08:28Z</time>
      </trkpt>
      <trkpt lat="43.64958" lon="1.37997">
        <ele>142</ele>
        <time>2025-04-16T10:08:29Z</time>
      </trkpt>
      <trkpt lat="43.6496" lon="1.38">
        <ele>142</ele>
        <time>2025-04-16T10:08:30Z</time>
      </trkpt>
      <trkpt lat="43.6496" lon="1.38002">
        <ele>142</ele>
        <time>2025-04-16T10:08:31Z</time>
      </trkpt>
      <trkpt lat="43.64961" lon="1.38005">
        <ele>143</ele>
        <time>2025-04-16T10:08:32Z</time>
      </trkpt>
      <trkpt lat="43.64962" lon="1.38008">
        <ele>143</ele>
        <time>2025-04-16T10:08:33Z</time>
      </trkpt>
      <trkpt lat="43.64964" lon="1.38011">
        <ele>143</ele>
        <time>2025-04-16T10:08:34Z</time>
      </trkpt>
      <trkpt lat="43.64965" lon="1.38014">
        <ele>143</ele>
        <time>2025-04-16T10:08:35Z</time>
      </trkpt>
      <trkpt lat="43.64965" lon="1.38017">
        <ele>143</ele>
        <time>2025-04-16T10:08:36Z</time>
      </trkpt>
      <trkpt lat="43.64966" lon="1.3802">
        <ele>143</ele>
        <time>2025-04-16T10:08:37Z</time>
      </trkpt>
      <trkpt lat="43.64966" lon="1.38023">
        <ele>143</ele>
        <time>2025-04-16T10:08:38Z</time>
      </trkpt>
      <trkpt lat="43.64968" lon="1.38026">
        <ele>143</ele>
        <time>2025-04-16T10:08:39Z</time>
      </trkpt>
      <trkpt lat="43.64969" lon="1.38029">
        <ele>143</ele>
        <time>2025-04-16T10:08:40Z</time>
      </trkpt>
      <trkpt lat="43.6497" lon="1.38033">
        <ele>143</ele>
        <time>2025-04-16T10:08:41Z</time>
      </trkpt>
      <trkpt lat="43.6497" lon="1.38036">
        <ele>143</ele>
        <time>2025-04-16T10:08:42Z</time>
      </trkpt>
      <trkpt lat="43.64971" lon="1.38039">
        <ele>143</ele>
        <time>2025-04-16T10:08:43Z</time>
      </trkpt>
      <trkpt lat="43.64973" lon="1.38042">
        <ele>143</ele>
        <time>2025-04-16T10:08:44Z</time>
      </trkpt>
      <trkpt lat="43.64974" lon="1.38045">
        <ele>143</ele>
        <time>2025-04-16T10:08:45Z</time>
      </trkpt>
      <trkpt lat="43.64975" lon="1.38048">
        <ele>143</ele>
        <time>2025-04-16T10:08:46Z</time>
      </trkpt>
      <trkpt lat="43.64976" lon="1.38051">
        <ele>143</ele>
        <time>2025-04-16T10:08:47Z</time>
      </trkpt>
      <trkpt lat="43.64977" lon="1.38054">
        <ele>143</ele>
        <time>2025-04-16T10:08:48Z</time>
      </trkpt>
      <trkpt lat="43.64978" lon="1.38057">
        <ele>143</ele>
        <time>2025-04-16T10:08:49Z</time>
      </trkpt>
      <trkpt lat="43.6498" lon="1.38061">
        <ele>143</ele>
        <time>2025-04-16T10:08:50Z</time>
      </trkpt>
      <trkpt lat="43.64981" lon="1.38064">
        <ele>143</ele>
        <time>2025-04-16T10:08:51Z</time>
      </trkpt>
      <trkpt lat="43.64983" lon="1.38066">
        <ele>143</ele>
        <time>2025-04-16T10:08:52Z</time>
      </trkpt>
      <trkpt lat="43.64984" lon="1.38069">
        <ele>143</ele>
        <time>2025-04-16T10:08:53Z</time>
      </trkpt>
      <trkpt lat="43.64986" lon="1.38072">
        <ele>143</ele>
        <time>2025-04-16T10:08:54Z</time>
      </trkpt>
      <trkpt lat="43.64987" lon="1.38075">
        <ele>143</ele>
        <time>2025-04-16T10:08:55Z</time>
      </trkpt>
      <trkpt lat="43.64988" lon="1.38078">
        <ele>143</ele>
        <time>2025-04-16T10:08:56Z</time>
      </trkpt>
      <trkpt lat="43.6499" lon="1.38081">
        <ele>143</ele>
        <time>2025-04-16T10:08:57Z</time>
      </trkpt>
      <trkpt lat="43.64992" lon="1.38084">
        <ele>143</ele>
        <time>2025-04-16T10:08:58Z</time>
      </trkpt>
      <trkpt lat="43.64994" lon="1.38086">
        <ele>143</ele>
        <time>2025-04-16T10:08:59Z</time>
      </trkpt>
      <trkpt lat="43.64995" lon="1.38089">
        <ele>143</ele>
        <time>2025-04-16T10:09:00Z</time>
      </trkpt>
      <trkpt lat="43.64996" lon="1.38092">
        <ele>143</ele>
        <time>2025-04-16T10:09:01Z</time>
      </trkpt>
      <trkpt lat="43.64997" lon="1.38095">
        <ele>143</ele>
        <time>2025-04-16T10:09:02Z</time>
      </trkpt>
      <trkpt lat="43.64998" lon="1.38098">
        <ele>144</ele>
        <time>2025-04-16T10:09:03Z</time>
      </trkpt>
      <trkpt lat="43.64999" lon="1.38102">
        <ele>144</ele>
        <time>2025-04-16T10:09:04Z</time>
      </trkpt>
      <trkpt lat="43.64999" lon="1.38105">
        <ele>144</ele>
        <time>2025-04-16T10:09:05Z</time>
      </trkpt>
      <trkpt lat="43.65" lon="1.38108">
        <ele>143</ele>
        <time>2025-04-16T10:09:06Z</time>
      </trkpt>
      <trkpt lat="43.65001" lon="1.38111">
        <ele>143</ele>
        <time>2025-04-16T10:09:07Z</time>
      </trkpt>
      <trkpt lat="43.65003" lon="1.38114">
        <ele>143</ele>
        <time>2025-04-16T10:09:08Z</time>
      </trkpt>
      <trkpt lat="43.65004" lon="1.38117">
        <ele>143</ele>
        <time>2025-04-16T10:09:09Z</time>
      </trkpt>
      <trkpt lat="43.65005" lon="1.38121">
        <ele>143</ele>
        <time>2025-04-16T10:09:10Z</time>
      </trkpt>
      <trkpt lat="43.65005" lon="1.38125">
        <ele>143</ele>
        <time>2025-04-16T10:09:11Z</time>
      </trkpt>
      <trkpt lat="43.65006" lon="1.38128">
        <ele>143</ele>
        <time>2025-04-16T10:09:12Z</time>
      </trkpt>
      <trkpt lat="43.65007" lon="1.38132">
        <ele>143</ele>
        <time>2025-04-16T10:09:13Z</time>
      </trkpt>
      <trkpt lat="43.65008" lon="1.38135">
        <ele>144</ele>
        <time>2025-04-16T10:09:14Z</time>
      </trkpt>
      <trkpt lat="43.65008" lon="1.38139">
        <ele>144</ele>
        <time>2025-04-16T10:09:15Z</time>
      </trkpt>
      <trkpt lat="43.65008" lon="1.38142">
        <ele>144</ele>
        <time>2025-04-16T10:09:16Z</time>
      </trkpt>
      <trkpt lat="43.65008" lon="1.38146">
        <ele>144</ele>
        <time>2025-04-16T10:09:17Z</time>
      </trkpt>
      <trkpt lat="43.65007" lon="1.3815">
        <ele>144</ele>
        <time>2025-04-16T10:09:18Z</time>
      </trkpt>
      <trkpt lat="43.65005" lon="1.38153">
        <ele>145</ele>
        <time>2025-04-16T10:09:19Z</time>
      </trkpt>
      <trkpt lat="43.65004" lon="1.38156">
        <ele>145</ele>
        <time>2025-04-16T10:09:20Z</time>
      </trkpt>
      <trkpt lat="43.65003" lon="1.3816">
        <ele>145</ele>
        <time>2025-04-16T10:09:21Z</time>
      </trkpt>
      <trkpt lat="43.65001" lon="1.38163">
        <ele>145</ele>
        <time>2025-04-16T10:09:22Z</time>
      </trkpt>
      <trkpt lat="43.65" lon="1.38167">
        <ele>145</ele>
        <time>2025-04-16T10:09:23Z</time>
      </trkpt>
      <trkpt lat="43.64999" lon="1.38171">
        <ele>145</ele>
        <time>2025-04-16T10:09:24Z</time>
      </trkpt>
      <trkpt lat="43.64999" lon="1.38175">
        <ele>145</ele>
        <time>2025-04-16T10:09:25Z</time>
      </trkpt>
      <trkpt lat="43.65" lon="1.38179">
        <ele>145</ele>
        <time>2025-04-16T10:09:26Z</time>
      </trkpt>
      <trkpt lat="43.65" lon="1.38182">
        <ele>145</ele>
        <time>2025-04-16T10:09:27Z</time>
      </trkpt>
      <trkpt lat="43.65002" lon="1.38184">
        <ele>145</ele>
        <time>2025-04-16T10:09:28Z</time>
      </trkpt>
      <trkpt lat="43.65003" lon="1.38186">
        <ele>144</ele>
        <time>2025-04-16T10:09:29Z</time>
      </trkpt>
      <trkpt lat="43.65005" lon="1.38188">
        <ele>144</ele>
        <time>2025-04-16T10:09:30Z</time>
      </trkpt>
      <trkpt lat="43.65007" lon="1.38191">
        <ele>144</ele>
        <time>2025-04-16T10:09:31Z</time>
      </trkpt>
      <trkpt lat="43.65008" lon="1.38193">
        <ele>144</ele>
        <time>2025-04-16T10:09:32Z</time>
      </trkpt>
      <trkpt lat="43.6501" lon="1.38196">
        <ele>144</ele>
        <time>2025-04-16T10:09:33Z</time>
      </trkpt>
      <trkpt lat="43.65012" lon="1.38199">
        <ele>144</ele>
        <time>2025-04-16T10:09:34Z</time>
      </trkpt>
      <trkpt lat="43.65014" lon="1.38202">
        <ele>144</ele>
        <time>2025-04-16T10:09:35Z</time>
      </trkpt>
      <trkpt lat="43.65016" lon="1.38205">
        <ele>144</ele>
        <time>2025-04-16T10:09:36Z</time>
      </trkpt>
      <trkpt lat="43.65018" lon="1.38208">
        <ele>144</ele>
        <time>2025-04-16T10:09:37Z</time>
      </trkpt>
      <trkpt lat="43.65019" lon="1.38212">
        <ele>144</ele>
        <time>2025-04-16T10:09:38Z</time>
      </trkpt>
      <trkpt lat="43.6502" lon="1.38215">
        <ele>144</ele>
        <time>2025-04-16T10:09:39Z</time>
      </trkpt>
      <trkpt lat="43.6502" lon="1.38218">
        <ele>144</ele>
        <time>2025-04-16T10:09:40Z</time>
      </trkpt>
      <trkpt lat="43.65021" lon="1.38222">
        <ele>144</ele>
        <time>2025-04-16T10:09:41Z</time>
      </trkpt>
      <trkpt lat="43.65022" lon="1.38226">
        <ele>144</ele>
        <time>2025-04-16T10:09:42Z</time>
      </trkpt>
      <trkpt lat="43.65022" lon="1.3823">
        <ele>144</ele>
        <time>2025-04-16T10:09:43Z</time>
      </trkpt>
      <trkpt lat="43.65023" lon="1.38233">
        <ele>144</ele>
        <time>2025-04-16T10:09:44Z</time>
      </trkpt>
      <trkpt lat="43.65024" lon="1.38236">
        <ele>144</ele>
        <time>2025-04-16T10:09:45Z</time>
      </trkpt>
      <trkpt lat="43.65025" lon="1.3824">
        <ele>144</ele>
        <time>2025-04-16T10:09:46Z</time>
      </trkpt>
      <trkpt lat="43.65026" lon="1.38243">
        <ele>144</ele>
        <time>2025-04-16T10:09:47Z</time>
      </trkpt>
      <trkpt lat="43.65026" lon="1.38247">
        <ele>144</ele>
        <time>2025-04-16T10:09:48Z</time>
      </trkpt>
      <trkpt lat="43.65027" lon="1.3825">
        <ele>144</ele>
        <time>2025-04-16T10:09:49Z</time>
      </trkpt>
      <trkpt lat="43.65028" lon="1.38254">
        <ele>144</ele>
        <time>2025-04-16T10:09:50Z</time>
      </trkpt>
      <trkpt lat="43.65029" lon="1.38257">
        <ele>144</ele>
        <time>2025-04-16T10:09:51Z</time>
      </trkpt>
      <trkpt lat="43.6503" lon="1.38259">
        <ele>144</ele>
        <time>2025-04-16T10:09:52Z</time>
      </trkpt>
      <trkpt lat="43.65031" lon="1.38263">
        <ele>144</ele>
        <time>2025-04-16T10:09:53Z</time>
      </trkpt>
      <trkpt lat="43.65033" lon="1.38266">
        <ele>144</ele>
        <time>2025-04-16T10:09:54Z</time>
      </trkpt>
      <trkpt lat="43.65034" lon="1.38269">
        <ele>144</ele>
        <time>2025-04-16T10:09:55Z</time>
      </trkpt>
      <trkpt lat="43.65036" lon="1.38272">
        <ele>144</ele>
        <time>2025-04-16T10:09:56Z</time>
      </trkpt>
      <trkpt lat="43.65037" lon="1.38275">
        <ele>144</ele>
        <time>2025-04-16T10:09:57Z</time>
      </trkpt>
      <trkpt lat="43.65039" lon="1.38278">
        <ele>144</ele>
        <time>2025-04-16T10:09:58Z</time>
      </trkpt>
      <trkpt lat="43.6504" lon="1.38281">
        <ele>144</ele>
        <time>2025-04-16T10:09:59Z</time>
      </trkpt>
      <trkpt lat="43.65041" lon="1.38284">
        <ele>144</ele>
        <time>2025-04-16T10:10:00Z</time>
      </trkpt>
      <trkpt lat="43.65042" lon="1.38288">
        <ele>144</ele>
        <time>2025-04-16T10:10:01Z</time>
      </trkpt>
      <trkpt lat="43.65043" lon="1.38292">
        <ele>144</ele>
        <time>2025-04-16T10:10:02Z</time>
      </trkpt>
      <trkpt lat="43.65044" lon="1.38295">
        <ele>144</ele>
        <time>2025-04-16T10:10:03Z</time>
      </trkpt>
      <trkpt lat="43.65045" lon="1.38299">
        <ele>144</ele>
        <time>2025-04-16T10:10:04Z</time>
      </trkpt>
      <trkpt lat="43.65046" lon="1.38302">
        <ele>144</ele>
        <time>2025-04-16T10:10:05Z</time>
      </trkpt>
      <trkpt lat="43.65046" lon="1.38305">
        <ele>144</ele>
        <time>2025-04-16T10:10:06Z</time>
      </trkpt>
      <trkpt lat="43.65047" lon="1.38309">
        <ele>144</ele>
        <time>2025-04-16T10:10:07Z</time>
      </trkpt>
      <trkpt lat="43.65047" lon="1.38312">
        <ele>144</ele>
        <time>2025-04-16T10:10:08Z</time>
      </trkpt>
      <trkpt lat="43.65048" lon="1.38316">
        <ele>144</ele>
        <time>2025-04-16T10:10:09Z</time>
      </trkpt>
      <trkpt lat="43.65049" lon="1.38319">
        <ele>144</ele>
        <time>2025-04-16T10:10:10Z</time>
      </trkpt>
      <trkpt lat="43.6505" lon="1.38322">
        <ele>144</ele>
        <time>2025-04-16T10:10:11Z</time>
      </trkpt>
      <trkpt lat="43.65051" lon="1.38325">
        <ele>144</ele>
        <time>2025-04-16T10:10:12Z</time>
      </trkpt>
      <trkpt lat="43.65052" lon="1.38329">
        <ele>144</ele>
        <time>2025-04-16T10:10:13Z</time>
      </trkpt>
      <trkpt lat="43.65053" lon="1.38332">
        <ele>144</ele>
        <time>2025-04-16T10:10:14Z</time>
      </trkpt>
      <trkpt lat="43.65054" lon="1.38336">
        <ele>144</ele>
        <time>2025-04-16T10:10:15Z</time>
      </trkpt>
      <trkpt lat="43.65055" lon="1.38339">
        <ele>144</ele>
        <time>2025-04-16T10:10:16Z</time>
      </trkpt>
      <trkpt lat="43.65056" lon="1.38342">
        <ele>144</ele>
        <time>2025-04-16T10:10:17Z</time>
      </trkpt>
      <trkpt lat="43.65056" lon="1.38346">
        <ele>144</ele>
        <time>2025-04-16T10:10:18Z</time>
      </trkpt>
      <trkpt lat="43.65057" lon="1.38349">
        <ele>144</ele>
        <time>2025-04-16T10:10:19Z</time>
      </trkpt>
      <trkpt lat="43.65058" lon="1.38353">
        <ele>144</ele>
        <time>2025-04-16T10:10:20Z</time>
      </trkpt>
      <trkpt lat="43.65059" lon="1.38356">
        <ele>144</ele>
        <time>2025-04-16T10:10:21Z</time>
      </trkpt>
      <trkpt lat="43.6506" lon="1.38359">
        <ele>144</ele>
        <time>2025-04-16T10:10:22Z</time>
      </trkpt>
      <trkpt lat="43.6506" lon="1.38362">
        <ele>144</ele>
        <time>2025-04-16T10:10:23Z</time>
      </trkpt>
      <trkpt lat="43.65061" lon="1.38365">
        <ele>144</ele>
        <time>2025-04-16T10:10:24Z</time>
      </trkpt>
      <trkpt lat="43.65062" lon="1.38369">
        <ele>144</ele>
        <time>2025-04-16T10:10:25Z</time>
      </trkpt>
      <trkpt lat="43.65063" lon="1.38372">
        <ele>144</ele>
        <time>2025-04-16T10:10:26Z</time>
      </trkpt>
      <trkpt lat="43.65064" lon="1.38375">
        <ele>144</ele>
        <time>2025-04-16T10:10:27Z</time>
      </trkpt>
      <trkpt lat="43.65065" lon="1.38379">
        <ele>144</ele>
        <time>2025-04-16T10:10:28Z</time>
      </trkpt>
      <trkpt lat="43.65066" lon="1.38382">
        <ele>144</ele>
        <time>2025-04-16T10:10:29Z</time>
      </trkpt>
      <trkpt lat="43.65067" lon="1.38386">
        <ele>144</ele>
        <time>2025-04-16T10:10:30Z</time>
      </trkpt>
      <trkpt lat="43.65068" lon="1.38389">
        <ele>144</ele>
        <time>2025-04-16T10:10:31Z</time>
      </trkpt>
      <trkpt lat="43.65069" lon="1.38393">
        <ele>144</ele>
        <time>2025-04-16T10:10:32Z</time>
      </trkpt>
      <trkpt lat="43.6507" lon="1.38396">
        <ele>144</ele>
        <time>2025-04-16T10:10:33Z</time>
      </trkpt>
      <trkpt lat="43.65071" lon="1.384">
        <ele>144</ele>
        <time>2025-04-16T10:10:34Z</time>
      </trkpt>
      <trkpt lat="43.65072" lon="1.38403">
        <ele>144</ele>
        <time>2025-04-16T10:10:35Z</time>
      </trkpt>
      <trkpt lat="43.65073" lon="1.38406">
        <ele>144</ele>
        <time>2025-04-16T10:10:36Z</time>
      </trkpt>
      <trkpt lat="43.65074" lon="1.3841">
        <ele>144</ele>
        <time>2025-04-16T10:10:37Z</time>
      </trkpt>
      <trkpt lat="43.65075" lon="1.38413">
        <ele>144</ele>
        <time>2025-04-16T10:10:38Z</time>
      </trkpt>
      <trkpt lat="43.65075" lon="1.38417">
        <ele>144</ele>
        <time>2025-04-16T10:10:39Z</time>
      </trkpt>
      <trkpt lat="43.65076" lon="1.3842">
        <ele>144</ele>
        <time>2025-04-16T10:10:40Z</time>
      </trkpt>
      <trkpt lat="43.65077" lon="1.38423">
        <ele>144</ele>
        <time>2025-04-16T10:10:41Z</time>
      </trkpt>
      <trkpt lat="43.65079" lon="1.38426">
        <ele>144</ele>
        <time>2025-04-16T10:10:42Z</time>
      </trkpt>
      <trkpt lat="43.6508" lon="1.38429">
        <ele>144</ele>
        <time>2025-04-16T10:10:43Z</time>
      </trkpt>
      <trkpt lat="43.65081" lon="1.38432">
        <ele>144</ele>
        <time>2025-04-16T10:10:44Z</time>
      </trkpt>
      <trkpt lat="43.65082" lon="1.38435">
        <ele>144</ele>
        <time>2025-04-16T10:10:45Z</time>
      </trkpt>
      <trkpt lat="43.65083" lon="1.38439">
        <ele>144</ele>
        <time>2025-04-16T10:10:46Z</time>
      </trkpt>
      <trkpt lat="43.65084" lon="1.38442">
        <ele>144</ele>
        <time>2025-04-16T10:10:47Z</time>
      </trkpt>
      <trkpt lat="43.65085" lon="1.38445">
        <ele>143</ele>
        <time>2025-04-16T10:10:48Z</time>
      </trkpt>
      <trkpt lat="43.65085" lon="1.38449">
        <ele>143</ele>
        <time>2025-04-16T10:10:49Z</time>
      </trkpt>
      <trkpt lat="43.65086" lon="1.38452">
        <ele>143</ele>
        <time>2025-04-16T10:10:50Z</time>
      </trkpt>
      <trkpt lat="43.65087" lon="1.38455">
        <ele>143</ele>
        <time>2025-04-16T10:10:51Z</time>
      </trkpt>
      <trkpt lat="43.65087" lon="1.38458">
        <ele>143</ele>
        <time>2025-04-16T10:10:52Z</time>
      </trkpt>
      <trkpt lat="43.65087" lon="1.38461">
        <ele>143</ele>
        <time>2025-04-16T10:10:53Z</time>
      </trkpt>
      <trkpt lat="43.65088" lon="1.38465">
        <ele>143</ele>
        <time>2025-04-16T10:10:54Z</time>
      </trkpt>
      <trkpt lat="43.65089" lon="1.38468">
        <ele>143</ele>
        <time>2025-04-16T10:10:55Z</time>
      </trkpt>
      <trkpt lat="43.6509" lon="1.38471">
        <ele>143</ele>
        <time>2025-04-16T10:10:56Z</time>
      </trkpt>
      <trkpt lat="43.65091" lon="1.38475">
        <ele>143</ele>
        <time>2025-04-16T10:10:57Z</time>
      </trkpt>
      <trkpt lat="43.65092" lon="1.38478">
        <ele>143</ele>
        <time>2025-04-16T10:10:58Z</time>
      </trkpt>
      <trkpt lat="43.65093" lon="1.38481">
        <ele>143</ele>
        <time>2025-04-16T10:10:59Z</time>
      </trkpt>
      <trkpt lat="43.65094" lon="1.38485">
        <ele>143</ele>
        <time>2025-04-16T10:11:00Z</time>
      </trkpt>
      <trkpt lat="43.65096" lon="1.38488">
        <ele>143</ele>
        <time>2025-04-16T10:11:01Z</time>
      </trkpt>
      <trkpt lat="43.65097" lon="1.38492">
        <ele>143</ele>
        <time>2025-04-16T10:11:02Z</time>
      </trkpt>
      <trkpt lat="43.65098" lon="1.38495">
        <ele>143</ele>
        <time>2025-04-16T10:11:03Z</time>
      </trkpt>
      <trkpt lat="43.65099" lon="1.38499">
        <ele>143</ele>
        <time>2025-04-16T10:11:04Z</time>
      </trkpt>
      <trkpt lat="43.651" lon="1.38502">
        <ele>143</ele>
        <time>2025-04-16T10:11:05Z</time>
      </trkpt>
      <trkpt lat="43.65101" lon="1.38506">
        <ele>143</ele>
        <time>2025-04-16T10:11:06Z</time>
      </trkpt>
      <trkpt lat="43.65101" lon="1.3851">
        <ele>143</ele>
        <time>2025-04-16T10:11:07Z</time>
      </trkpt>
      <trkpt lat="43.651" lon="1.38514">
        <ele>143</ele>
        <time>2025-04-16T10:11:08Z</time>
      </trkpt>
      <trkpt lat="43.65099" lon="1.38518">
        <ele>143</ele>
        <time>2025-04-16T10:11:09Z</time>
      </trkpt>
      <trkpt lat="43.65098" lon="1.38522">
        <ele>143</ele>
        <time>2025-04-16T10:11:10Z</time>
      </trkpt>
      <trkpt lat="43.65097" lon="1.38525">
        <ele>143</ele>
        <time>2025-04-16T10:11:11Z</time>
      </trkpt>
      <trkpt lat="43.65096" lon="1.38529">
        <ele>143</ele>
        <time>2025-04-16T10:11:12Z</time>
      </trkpt>
      <trkpt lat="43.65096" lon="1.38533">
        <ele>143</ele>
        <time>2025-04-16T10:11:13Z</time>
      </trkpt>
      <trkpt lat="43.65098" lon="1.38537">
        <ele>143</ele>
        <time>2025-04-16T10:11:14Z</time>
      </trkpt>
      <trkpt lat="43.65099" lon="1.3854">
        <ele>143</ele>
        <time>2025-04-16T10:11:15Z</time>
      </trkpt>
      <trkpt lat="43.65101" lon="1.38542">
        <ele>143</ele>
        <time>2025-04-16T10:11:16Z</time>
      </trkpt>
      <trkpt lat="43.65104" lon="1.38543">
        <ele>143</ele>
        <time>2025-04-16T10:11:17Z</time>
      </trkpt>
      <trkpt lat="43.65106" lon="1.38544">
        <ele>143</ele>
        <time>2025-04-16T10:11:18Z</time>
      </trkpt>
      <trkpt lat="43.65109" lon="1.38545">
        <ele>143</ele>
        <time>2025-04-16T10:11:19Z</time>
      </trkpt>
      <trkpt lat="43.65112" lon="1.38546">
        <ele>142</ele>
        <time>2025-04-16T10:11:20Z</time>
      </trkpt>
      <trkpt lat="43.65114" lon="1.38548">
        <ele>142</ele>
        <time>2025-04-16T10:11:21Z</time>
      </trkpt>
      <trkpt lat="43.65116" lon="1.38551">
        <ele>142</ele>
        <time>2025-04-16T10:11:22Z</time>
      </trkpt>
      <trkpt lat="43.65117" lon="1.38554">
        <ele>142</ele>
        <time>2025-04-16T10:11:23Z</time>
      </trkpt>
      <trkpt lat="43.65118" lon="1.38558">
        <ele>143</ele>
        <time>2025-04-16T10:11:24Z</time>
      </trkpt>
      <trkpt lat="43.6512" lon="1.38561">
        <ele>143</ele>
        <time>2025-04-16T10:11:25Z</time>
      </trkpt>
      <trkpt lat="43.65121" lon="1.38565">
        <ele>143</ele>
        <time>2025-04-16T10:11:26Z</time>
      </trkpt>
      <trkpt lat="43.65122" lon="1.38569">
        <ele>143</ele>
        <time>2025-04-16T10:11:27Z</time>
      </trkpt>
      <trkpt lat="43.65123" lon="1.38572">
        <ele>143</ele>
        <time>2025-04-16T10:11:28Z</time>
      </trkpt>
      <trkpt lat="43.65124" lon="1.38576">
        <ele>143</ele>
        <time>2025-04-16T10:11:29Z</time>
      </trkpt>
      <trkpt lat="43.65124" lon="1.3858">
        <ele>143</ele>
        <time>2025-04-16T10:11:30Z</time>
      </trkpt>
      <trkpt lat="43.65125" lon="1.38583">
        <ele>143</ele>
        <time>2025-04-16T10:11:31Z</time>
      </trkpt>
      <trkpt lat="43.65126" lon="1.38587">
        <ele>143</ele>
        <time>2025-04-16T10:11:32Z</time>
      </trkpt>
      <trkpt lat="43.65126" lon="1.38591">
        <ele>143</ele>
        <time>2025-04-16T10:11:33Z</time>
      </trkpt>
      <trkpt lat="43.65127" lon="1.38594">
        <ele>143</ele>
        <time>2025-04-16T10:11:34Z</time>
      </trkpt>
      <trkpt lat="43.65128" lon="1.38598">
        <ele>143</ele>
        <time>2025-04-16T10:11:35Z</time>
      </trkpt>
      <trkpt lat="43.65129" lon="1.38601">
        <ele>143</ele>
        <time>2025-04-16T10:11:36Z</time>
      </trkpt>
      <trkpt lat="43.6513" lon="1.38605">
        <ele>143</ele>
        <time>2025-04-16T10:11:37Z</time>
      </trkpt>
      <trkpt lat="43.65131" lon="1.38609">
        <ele>143</ele>
        <time>2025-04-16T10:11:38Z</time>
      </trkpt>
      <trkpt lat="43.65132" lon="1.38612">
        <ele>143</ele>
        <time>2025-04-16T10:11:39Z</time>
      </trkpt>
      <trkpt lat="43.65134" lon="1.38615">
        <ele>143</ele>
        <time>2025-04-16T10:11:40Z</time>
      </trkpt>
      <trkpt lat="43.65135" lon="1.38617">
        <ele>143</ele>
        <time>2025-04-16T10:11:41Z</time>
      </trkpt>
      <trkpt lat="43.65137" lon="1.3862">
        <ele>142</ele>
        <time>2025-04-16T10:11:42Z</time>
      </trkpt>
      <trkpt lat="43.65138" lon="1.38623">
        <ele>142</ele>
        <time>2025-04-16T10:11:43Z</time>
      </trkpt>
      <trkpt lat="43.65139" lon="1.38627">
        <ele>142</ele>
        <time>2025-04-16T10:11:44Z</time>
      </trkpt>
      <trkpt lat="43.6514" lon="1.38629">
        <ele>142</ele>
        <time>2025-04-16T10:11:45Z</time>
      </trkpt>
      <trkpt lat="43.65141" lon="1.38632">
        <ele>142</ele>
        <time>2025-04-16T10:11:46Z</time>
      </trkpt>
      <trkpt lat="43.65143" lon="1.38635">
        <ele>142</ele>
        <time>2025-04-16T10:11:47Z</time>
      </trkpt>
      <trkpt lat="43.65144" lon="1.38638">
        <ele>142</ele>
        <time>2025-04-16T10:11:48Z</time>
      </trkpt>
      <trkpt lat="43.65145" lon="1.38641">
        <ele>142</ele>
        <time>2025-04-16T10:11:49Z</time>
      </trkpt>
      <trkpt lat="43.65147" lon="1.38644">
        <ele>142</ele>
        <time>2025-04-16T10:11:50Z</time>
      </trkpt>
      <trkpt lat="43.65148" lon="1.38647">
        <ele>142</ele>
        <time>2025-04-16T10:11:51Z</time>
      </trkpt>
      <trkpt lat="43.65149" lon="1.3865">
        <ele>142</ele>
        <time>2025-04-16T10:11:52Z</time>
      </trkpt>
      <trkpt lat="43.6515" lon="1.38653">
        <ele>142</ele>
        <time>2025-04-16T10:11:53Z</time>
      </trkpt>
      <trkpt lat="43.65151" lon="1.38657">
        <ele>142</ele>
        <time>2025-04-16T10:11:54Z</time>
      </trkpt>
      <trkpt lat="43.65152" lon="1.3866">
        <ele>142</ele>
        <time>2025-04-16T10:11:55Z</time>
      </trkpt>
      <trkpt lat="43.65153" lon="1.38663">
        <ele>142</ele>
        <time>2025-04-16T10:11:56Z</time>
      </trkpt>
      <trkpt lat="43.65154" lon="1.38666">
        <ele>142</ele>
        <time>2025-04-16T10:11:57Z</time>
      </trkpt>
      <trkpt lat="43.65155" lon="1.3867">
        <ele>142</ele>
        <time>2025-04-16T10:11:58Z</time>
      </trkpt>
      <trkpt lat="43.65157" lon="1.38673">
        <ele>142</ele>
        <time>2025-04-16T10:11:59Z</time>
      </trkpt>
      <trkpt lat="43.65158" lon="1.38676">
        <ele>142</ele>
        <time>2025-04-16T10:12:00Z</time>
      </trkpt>
      <trkpt lat="43.65159" lon="1.38679">
        <ele>142</ele>
        <time>2025-04-16T10:12:01Z</time>
      </trkpt>
      <trkpt lat="43.6516" lon="1.38682">
        <ele>142</ele>
        <time>2025-04-16T10:12:02Z</time>
      </trkpt>
      <trkpt lat="43.65161" lon="1.38685">
        <ele>143</ele>
        <time>2025-04-16T10:12:03Z</time>
      </trkpt>
      <trkpt lat="43.65162" lon="1.38687">
        <ele>143</ele>
        <time>2025-04-16T10:12:04Z</time>
      </trkpt>
      <trkpt lat="43.65163" lon="1.3869">
        <ele>143</ele>
        <time>2025-04-16T10:12:05Z</time>
      </trkpt>
      <trkpt lat="43.65164" lon="1.38693">
        <ele>143</ele>
        <time>2025-04-16T10:12:06Z</time>
      </trkpt>
      <trkpt lat="43.65166" lon="1.38696">
        <ele>143</ele>
        <time>2025-04-16T10:12:07Z</time>
      </trkpt>
      <trkpt lat="43.65168" lon="1.38699">
        <ele>143</ele>
        <time>2025-04-16T10:12:08Z</time>
      </trkpt>
      <trkpt lat="43.65169" lon="1.38702">
        <ele>143</ele>
        <time>2025-04-16T10:12:09Z</time>
      </trkpt>
      <trkpt lat="43.65171" lon="1.38705">
        <ele>143</ele>
        <time>2025-04-16T10:12:10Z</time>
      </trkpt>
      <trkpt lat="43.65172" lon="1.38709">
        <ele>143</ele>
        <time>2025-04-16T10:12:11Z</time>
      </trkpt>
      <trkpt lat="43.65173" lon="1.38712">
        <ele>143</ele>
        <time>2025-04-16T10:12:12Z</time>
      </trkpt>
      <trkpt lat="43.65173" lon="1.38715">
        <ele>144</ele>
        <time>2025-04-16T10:12:13Z</time>
      </trkpt>
      <trkpt lat="43.65174" lon="1.38718">
        <ele>144</ele>
        <time>2025-04-16T10:12:14Z</time>
      </trkpt>
      <trkpt lat="43.65175" lon="1.38721">
        <ele>144</ele>
        <time>2025-04-16T10:12:15Z</time>
      </trkpt>
      <trkpt lat="43.65176" lon="1.38725">
        <ele>144</ele>
        <time>2025-04-16T10:12:16Z</time>
      </trkpt>
      <trkpt lat="43.65177" lon="1.38729">
        <ele>144</ele>
        <time>2025-04-16T10:12:17Z</time>
      </trkpt>
      <trkpt lat="43.65178" lon="1.38732">
        <ele>143</ele>
        <time>2025-04-16T10:12:18Z</time>
      </trkpt>
      <trkpt lat="43.65179" lon="1.38735">
        <ele>143</ele>
        <time>2025-04-16T10:12:19Z</time>
      </trkpt>
      <trkpt lat="43.6518" lon="1.38738">
        <ele>143</ele>
        <time>2025-04-16T10:12:20Z</time>
      </trkpt>
      <trkpt lat="43.65182" lon="1.38742">
        <ele>143</ele>
        <time>2025-04-16T10:12:21Z</time>
      </trkpt>
      <trkpt lat="43.65183" lon="1.38746">
        <ele>143</ele>
        <time>2025-04-16T10:12:22Z</time>
      </trkpt>
      <trkpt lat="43.65185" lon="1.38749">
        <ele>143</ele>
        <time>2025-04-16T10:12:23Z</time>
      </trkpt>
      <trkpt lat="43.65186" lon="1.38753">
        <ele>143</ele>
        <time>2025-04-16T10:12:24Z</time>
      </trkpt>
      <trkpt lat="43.65187" lon="1.38757">
        <ele>144</ele>
        <time>2025-04-16T10:12:25Z</time>
      </trkpt>
      <trkpt lat="43.65188" lon="1.38761">
        <ele>144</ele>
        <time>2025-04-16T10:12:26Z</time>
      </trkpt>
      <trkpt lat="43.6519" lon="1.38765">
        <ele>144</ele>
        <time>2025-04-16T10:12:27Z</time>
      </trkpt>
      <trkpt lat="43.65191" lon="1.38768">
        <ele>143</ele>
        <time>2025-04-16T10:12:28Z</time>
      </trkpt>
      <trkpt lat="43.65193" lon="1.38771">
        <ele>143</ele>
        <time>2025-04-16T10:12:29Z</time>
      </trkpt>
      <trkpt lat="43.65194" lon="1.38773">
        <ele>143</ele>
        <time>2025-04-16T10:12:30Z</time>
      </trkpt>
      <trkpt lat="43.65196" lon="1.38776">
        <ele>143</ele>
        <time>2025-04-16T10:12:31Z</time>
      </trkpt>
      <trkpt lat="43.65198" lon="1.38778">
        <ele>143</ele>
        <time>2025-04-16T10:12:32Z</time>
      </trkpt>
      <trkpt lat="43.65199" lon="1.38781">
        <ele>143</ele>
        <time>2025-04-16T10:12:33Z</time>
      </trkpt>
      <trkpt lat="43.65201" lon="1.38784">
        <ele>143</ele>
        <time>2025-04-16T10:12:34Z</time>
      </trkpt>
      <trkpt lat="43.65202" lon="1.38786">
        <ele>143</ele>
        <time>2025-04-16T10:12:35Z</time>
      </trkpt>
      <trkpt lat="43.65204" lon="1.38789">
        <ele>143</ele>
        <time>2025-04-16T10:12:36Z</time>
      </trkpt>
      <trkpt lat="43.65206" lon="1.38792">
        <ele>143</ele>
        <time>2025-04-16T10:12:37Z</time>
      </trkpt>
      <trkpt lat="43.65208" lon="1.38795">
        <ele>143</ele>
        <time>2025-04-16T10:12:38Z</time>
      </trkpt>
      <trkpt lat="43.6521" lon="1.38797">
        <ele>143</ele>
        <time>2025-04-16T10:12:39Z</time>
      </trkpt>
      <trkpt lat="43.65212" lon="1.388">
        <ele>143</ele>
        <time>2025-04-16T10:12:40Z</time>
      </trkpt>
      <trkpt lat="43.65214" lon="1.38803">
        <ele>143</ele>
        <time>2025-04-16T10:12:41Z</time>
      </trkpt>
      <trkpt lat="43.65215" lon="1.38806">
        <ele>143</ele>
        <time>2025-04-16T10:12:42Z</time>
      </trkpt>
      <trkpt lat="43.65217" lon="1.3881">
        <ele>143</ele>
        <time>2025-04-16T10:12:43Z</time>
      </trkpt>
      <trkpt lat="43.65218" lon="1.38812">
        <ele>143</ele>
        <time>2025-04-16T10:12:44Z</time>
      </trkpt>
      <trkpt lat="43.6522" lon="1.38814">
        <ele>143</ele>
        <time>2025-04-16T10:12:45Z</time>
      </trkpt>
      <trkpt lat="43.65222" lon="1.38817">
        <ele>143</ele>
        <time>2025-04-16T10:12:46Z</time>
      </trkpt>
      <trkpt lat="43.65223" lon="1.3882">
        <ele>143</ele>
        <time>2025-04-16T10:12:47Z</time>
      </trkpt>
      <trkpt lat="43.65225" lon="1.38823">
        <ele>142</ele>
        <time>2025-04-16T10:12:48Z</time>
      </trkpt>
      <trkpt lat="43.65227" lon="1.38826">
        <ele>142</ele>
        <time>2025-04-16T10:12:49Z</time>
      </trkpt>
      <trkpt lat="43.65229" lon="1.38828">
        <ele>142</ele>
        <time>2025-04-16T10:12:50Z</time>
      </trkpt>
      <trkpt lat="43.65231" lon="1.38831">
        <ele>142</ele>
        <time>2025-04-16T10:12:51Z</time>
      </trkpt>
      <trkpt lat="43.65233" lon="1.38834">
        <ele>141</ele>
        <time>2025-04-16T10:12:52Z</time>
      </trkpt>
      <trkpt lat="43.65234" lon="1.38837">
        <ele>141</ele>
        <time>2025-04-16T10:12:53Z</time>
      </trkpt>
      <trkpt lat="43.65236" lon="1.3884">
        <ele>141</ele>
        <time>2025-04-16T10:12:54Z</time>
      </trkpt>
      <trkpt lat="43.65238" lon="1.38843">
        <ele>141</ele>
        <time>2025-04-16T10:12:55Z</time>
      </trkpt>
      <trkpt lat="43.6524" lon="1.38846">
        <ele>141</ele>
        <time>2025-04-16T10:12:56Z</time>
      </trkpt>
      <trkpt lat="43.65242" lon="1.38849">
        <ele>140</ele>
        <time>2025-04-16T10:12:57Z</time>
      </trkpt>
      <trkpt lat="43.65243" lon="1.38852">
        <ele>140</ele>
        <time>2025-04-16T10:12:58Z</time>
      </trkpt>
      <trkpt lat="43.65245" lon="1.38855">
        <ele>140</ele>
        <time>2025-04-16T10:12:59Z</time>
      </trkpt>
      <trkpt lat="43.65247" lon="1.38858">
        <ele>139</ele>
        <time>2025-04-16T10:13:00Z</time>
      </trkpt>
      <trkpt lat="43.65249" lon="1.38861">
        <ele>139</ele>
        <time>2025-04-16T10:13:01Z</time>
      </trkpt>
      <trkpt lat="43.6525" lon="1.38864">
        <ele>139</ele>
        <time>2025-04-16T10:13:02Z</time>
      </trkpt>
      <trkpt lat="43.65252" lon="1.38866">
        <ele>139</ele>
        <time>2025-04-16T10:13:03Z</time>
      </trkpt>
      <trkpt lat="43.65254" lon="1.38869">
        <ele>139</ele>
        <time>2025-04-16T10:13:04Z</time>
      </trkpt>
      <trkpt lat="43.65255" lon="1.38871">
        <ele>139</ele>
        <time>2025-04-16T10:13:05Z</time>
      </trkpt>
      <trkpt lat="43.65257" lon="1.38874">
        <ele>139</ele>
        <time>2025-04-16T10:13:06Z</time>
      </trkpt>
      <trkpt lat="43.65258" lon="1.38876">
        <ele>138</ele>
        <time>2025-04-16T10:13:07Z</time>
      </trkpt>
      <trkpt lat="43.6526" lon="1.38879">
        <ele>138</ele>
        <time>2025-04-16T10:13:08Z</time>
      </trkpt>
      <trkpt lat="43.65261" lon="1.38881">
        <ele>138</ele>
        <time>2025-04-16T10:13:09Z</time>
      </trkpt>
      <trkpt lat="43.65263" lon="1.38883">
        <ele>138</ele>
        <time>2025-04-16T10:13:10Z</time>
      </trkpt>
      <trkpt lat="43.65265" lon="1.38886">
        <ele>138</ele>
        <time>2025-04-16T10:13:11Z</time>
      </trkpt>
      <trkpt lat="43.65268" lon="1.3889">
        <ele>138</ele>
        <time>2025-04-16T10:13:12Z</time>
      </trkpt>
      <trkpt lat="43.65271" lon="1.38894">
        <ele>138</ele>
        <time>2025-04-16T10:13:13Z</time>
      </trkpt>
      <trkpt lat="43.65273" lon="1.38897">
        <ele>138</ele>
        <time>2025-04-16T10:13:14Z</time>
      </trkpt>
      <trkpt lat="43.65275" lon="1.38899">
        <ele>137</ele>
        <time>2025-04-16T10:13:15Z</time>
      </trkpt>
      <trkpt lat="43.65278" lon="1.38902">
        <ele>137</ele>
        <time>2025-04-16T10:13:16Z</time>
      </trkpt>
      <trkpt lat="43.6528" lon="1.38905">
        <ele>136</ele>
        <time>2025-04-16T10:13:17Z</time>
      </trkpt>
      <trkpt lat="43.65282" lon="1.38908">
        <ele>136</ele>
        <time>2025-04-16T10:13:18Z</time>
      </trkpt>
      <trkpt lat="43.65283" lon="1.38911">
        <ele>136</ele>
        <time>2025-04-16T10:13:19Z</time>
      </trkpt>
      <trkpt lat="43.65285" lon="1.38913">
        <ele>136</ele>
        <time>2025-04-16T10:13:20Z</time>
      </trkpt>
      <trkpt lat="43.65287" lon="1.38915">
        <ele>135</ele>
        <time>2025-04-16T10:13:21Z</time>
      </trkpt>
      <trkpt lat="43.65289" lon="1.38917">
        <ele>135</ele>
        <time>2025-04-16T10:13:22Z</time>
      </trkpt>
      <trkpt lat="43.65291" lon="1.38918">
        <ele>135</ele>
        <time>2025-04-16T10:13:23Z</time>
      </trkpt>
      <trkpt lat="43.65292" lon="1.38919">
        <ele>135</ele>
        <time>2025-04-16T10:13:24Z</time>
      </trkpt>
      <trkpt lat="43.65294" lon="1.3892">
        <ele>135</ele>
        <time>2025-04-16T10:13:25Z</time>
      </trkpt>
      <trkpt lat="43.65297" lon="1.38922">
        <ele>135</ele>
        <time>2025-04-16T10:13:26Z</time>
      </trkpt>
      <trkpt lat="43.653" lon="1.38925">
        <ele>134</ele>
        <time>2025-04-16T10:13:27Z</time>
      </trkpt>
      <trkpt lat="43.65303" lon="1.38928">
        <ele>134</ele>
        <time>2025-04-16T10:13:28Z</time>
      </trkpt>
      <trkpt lat="43.65306" lon="1.38932">
        <ele>134</ele>
        <time>2025-04-16T10:13:29Z</time>
      </trkpt>
      <trkpt lat="43.65309" lon="1.38936">
        <ele>133</ele>
        <time>2025-04-16T10:13:30Z</time>
      </trkpt>
      <trkpt lat="43.65312" lon="1.3894">
        <ele>132</ele>
        <time>2025-04-16T10:13:31Z</time>
      </trkpt>
      <trkpt lat="43.65314" lon="1.38945">
        <ele>132</ele>
        <time>2025-04-16T10:13:32Z</time>
      </trkpt>
      <trkpt lat="43.65316" lon="1.38949">
        <ele>132</ele>
        <time>2025-04-16T10:13:33Z</time>
      </trkpt>
      <trkpt lat="43.65318" lon="1.38953">
        <ele>132</ele>
        <time>2025-04-16T10:13:34Z</time>
      </trkpt>
      <trkpt lat="43.6532" lon="1.38957">
        <ele>131</ele>
        <time>2025-04-16T10:13:35Z</time>
      </trkpt>
      <trkpt lat="43.65321" lon="1.38962">
        <ele>131</ele>
        <time>2025-04-16T10:13:36Z</time>
      </trkpt>
      <trkpt lat="43.65323" lon="1.38965">
        <ele>131</ele>
        <time>2025-04-16T10:13:37Z</time>
      </trkpt>
      <trkpt lat="43.65325" lon="1.3897">
        <ele>130</ele>
        <time>2025-04-16T10:13:38Z</time>
      </trkpt>
      <trkpt lat="43.65326" lon="1.38974">
        <ele>129</ele>
        <time>2025-04-16T10:13:39Z</time>
      </trkpt>
      <trkpt lat="43.65328" lon="1.38979">
        <ele>128</ele>
        <time>2025-04-16T10:13:40Z</time>
      </trkpt>
      <trkpt lat="43.65329" lon="1.38983">
        <ele>128</ele>
        <time>2025-04-16T10:13:41Z</time>
      </trkpt>
      <trkpt lat="43.6533" lon="1.38987">
        <ele>127</ele>
        <time>2025-04-16T10:13:42Z</time>
      </trkpt>
      <trkpt lat="43.65331" lon="1.3899">
        <ele>127</ele>
        <time>2025-04-16T10:13:43Z</time>
      </trkpt>
      <trkpt lat="43.65331" lon="1.38994">
        <ele>126</ele>
        <time>2025-04-16T10:13:44Z</time>
      </trkpt>
      <trkpt lat="43.65331" lon="1.38998">
        <ele>126</ele>
        <time>2025-04-16T10:13:45Z</time>
      </trkpt>
      <trkpt lat="43.6533" lon="1.39003">
        <ele>126</ele>
        <time>2025-04-16T10:13:46Z</time>
      </trkpt>
      <trkpt lat="43.65328" lon="1.39007">
        <ele>126</ele>
        <time>2025-04-16T10:13:47Z</time>
      </trkpt>
      <trkpt lat="43.65326" lon="1.39012">
        <ele>126</ele>
        <time>2025-04-16T10:13:48Z</time>
      </trkpt>
      <trkpt lat="43.65326" lon="1.39012">
        <ele>126</ele>
        <time>2025-04-16T10:13:49Z</time>
      </trkpt>
      <trkpt lat="43.65321" lon="1.39021">
        <ele>126</ele>
        <time>2025-04-16T10:13:50Z</time>
      </trkpt>
      <trkpt lat="43.65319" lon="1.39024">
        <ele>126</ele>
        <time>2025-04-16T10:13:51Z</time>
      </trkpt>
      <trkpt lat="43.65317" lon="1.39029">
        <ele>126</ele>
        <time>2025-04-16T10:13:52Z</time>
      </trkpt>
      <trkpt lat="43.65315" lon="1.39032">
        <ele>125</ele>
        <time>2025-04-16T10:13:53Z</time>
      </trkpt>
      <trkpt lat="43.65314" lon="1.39036">
        <ele>125</ele>
        <time>2025-04-16T10:13:54Z</time>
      </trkpt>
      <trkpt lat="43.65312" lon="1.3904">
        <ele>125</ele>
        <time>2025-04-16T10:13:55Z</time>
      </trkpt>
      <trkpt lat="43.6531" lon="1.39044">
        <ele>125</ele>
        <time>2025-04-16T10:13:56Z</time>
      </trkpt>
      <trkpt lat="43.65307" lon="1.39046">
        <ele>125</ele>
        <time>2025-04-16T10:13:57Z</time>
      </trkpt>
      <trkpt lat="43.65304" lon="1.39048">
        <ele>125</ele>
        <time>2025-04-16T10:13:58Z</time>
      </trkpt>
      <trkpt lat="43.65301" lon="1.39049">
        <ele>125</ele>
        <time>2025-04-16T10:13:59Z</time>
      </trkpt>
      <trkpt lat="43.65298" lon="1.3905">
        <ele>125</ele>
        <time>2025-04-16T10:14:00Z</time>
      </trkpt>
      <trkpt lat="43.65295" lon="1.3905">
        <ele>126</ele>
        <time>2025-04-16T10:14:01Z</time>
      </trkpt>
      <trkpt lat="43.65292" lon="1.39049">
        <ele>126</ele>
        <time>2025-04-16T10:14:02Z</time>
      </trkpt>
      <trkpt lat="43.65289" lon="1.39048">
        <ele>125</ele>
        <time>2025-04-16T10:14:03Z</time>
      </trkpt>
      <trkpt lat="43.65285" lon="1.39047">
        <ele>125</ele>
        <time>2025-04-16T10:14:04Z</time>
      </trkpt>
      <trkpt lat="43.65282" lon="1.39046">
        <ele>125</ele>
        <time>2025-04-16T10:14:05Z</time>
      </trkpt>
      <trkpt lat="43.65279" lon="1.39045">
        <ele>125</ele>
        <time>2025-04-16T10:14:06Z</time>
      </trkpt>
      <trkpt lat="43.65276" lon="1.39045">
        <ele>125</ele>
        <time>2025-04-16T10:14:07Z</time>
      </trkpt>
      <trkpt lat="43.65273" lon="1.39044">
        <ele>125</ele>
        <time>2025-04-16T10:14:08Z</time>
      </trkpt>
      <trkpt lat="43.6527" lon="1.39044">
        <ele>125</ele>
        <time>2025-04-16T10:14:09Z</time>
      </trkpt>
      <trkpt lat="43.65268" lon="1.39043">
        <ele>125</ele>
        <time>2025-04-16T10:14:10Z</time>
      </trkpt>
      <trkpt lat="43.65265" lon="1.39042">
        <ele>125</ele>
        <time>2025-04-16T10:14:11Z</time>
      </trkpt>
      <trkpt lat="43.65262" lon="1.39042">
        <ele>125</ele>
        <time>2025-04-16T10:14:12Z</time>
      </trkpt>
      <trkpt lat="43.6526" lon="1.39042">
        <ele>125</ele>
        <time>2025-04-16T10:14:13Z</time>
      </trkpt>
      <trkpt lat="43.65257" lon="1.39042">
        <ele>125</ele>
        <time>2025-04-16T10:14:14Z</time>
      </trkpt>
      <trkpt lat="43.65254" lon="1.39043">
        <ele>125</ele>
        <time>2025-04-16T10:14:15Z</time>
      </trkpt>
      <trkpt lat="43.65251" lon="1.39043">
        <ele>125</ele>
        <time>2025-04-16T10:14:16Z</time>
      </trkpt>
      <trkpt lat="43.65248" lon="1.39044">
        <ele>125</ele>
        <time>2025-04-16T10:14:17Z</time>
      </trkpt>
      <trkpt lat="43.65245" lon="1.39043">
        <ele>125</ele>
        <time>2025-04-16T10:14:18Z</time>
      </trkpt>
      <trkpt lat="43.65243" lon="1.39043">
        <ele>125</ele>
        <time>2025-04-16T10:14:19Z</time>
      </trkpt>
      <trkpt lat="43.6524" lon="1.39042">
        <ele>125</ele>
        <time>2025-04-16T10:14:20Z</time>
      </trkpt>
      <trkpt lat="43.65237" lon="1.3904">
        <ele>125</ele>
        <time>2025-04-16T10:14:21Z</time>
      </trkpt>
      <trkpt lat="43.65235" lon="1.39039">
        <ele>125</ele>
        <time>2025-04-16T10:14:22Z</time>
      </trkpt>
      <trkpt lat="43.65232" lon="1.39036">
        <ele>125</ele>
        <time>2025-04-16T10:14:23Z</time>
      </trkpt>
      <trkpt lat="43.6523" lon="1.39034">
        <ele>125</ele>
        <time>2025-04-16T10:14:24Z</time>
      </trkpt>
      <trkpt lat="43.65228" lon="1.39032">
        <ele>125</ele>
        <time>2025-04-16T10:14:25Z</time>
      </trkpt>
      <trkpt lat="43.65225" lon="1.3903">
        <ele>125</ele>
        <time>2025-04-16T10:14:26Z</time>
      </trkpt>
      <trkpt lat="43.65223" lon="1.39028">
        <ele>125</ele>
        <time>2025-04-16T10:14:27Z</time>
      </trkpt>
      <trkpt lat="43.65221" lon="1.39026">
        <ele>125</ele>
        <time>2025-04-16T10:14:28Z</time>
      </trkpt>
      <trkpt lat="43.65218" lon="1.39025">
        <ele>125</ele>
        <time>2025-04-16T10:14:29Z</time>
      </trkpt>
      <trkpt lat="43.65216" lon="1.39024">
        <ele>125</ele>
        <time>2025-04-16T10:14:30Z</time>
      </trkpt>
      <trkpt lat="43.65213" lon="1.39023">
        <ele>125</ele>
        <time>2025-04-16T10:14:31Z</time>
      </trkpt>
      <trkpt lat="43.65211" lon="1.39022">
        <ele>125</ele>
        <time>2025-04-16T10:14:32Z</time>
      </trkpt>
      <trkpt lat="43.65208" lon="1.39022">
        <ele>125</ele>
        <time>2025-04-16T10:14:33Z</time>
      </trkpt>
      <trkpt lat="43.65206" lon="1.39021">
        <ele>125</ele>
        <time>2025-04-16T10:14:34Z</time>
      </trkpt>
      <trkpt lat="43.65203" lon="1.39021">
        <ele>125</ele>
        <time>2025-04-16T10:14:35Z</time>
      </trkpt>
      <trkpt lat="43.652" lon="1.39021">
        <ele>125</ele>
        <time>2025-04-16T10:14:36Z</time>
      </trkpt>
      <trkpt lat="43.65198" lon="1.39021">
        <ele>125</ele>
        <time>2025-04-16T10:14:37Z</time>
      </trkpt>
      <trkpt lat="43.65195" lon="1.39021">
        <ele>125</ele>
        <time>2025-04-16T10:14:38Z</time>
      </trkpt>
      <trkpt lat="43.65192" lon="1.39021">
        <ele>125</ele>
        <time>2025-04-16T10:14:39Z</time>
      </trkpt>
      <trkpt lat="43.65189" lon="1.39021">
        <ele>125</ele>
        <time>2025-04-16T10:14:40Z</time>
      </trkpt>
      <trkpt lat="43.65187" lon="1.39021">
        <ele>125</ele>
        <time>2025-04-16T10:14:41Z</time>
      </trkpt>
      <trkpt lat="43.65184" lon="1.39021">
        <ele>125</ele>
        <time>2025-04-16T10:14:42Z</time>
      </trkpt>
      <trkpt lat="43.65181" lon="1.39021">
        <ele>125</ele>
        <time>2025-04-16T10:14:43Z</time>
      </trkpt>
      <trkpt lat="43.65178" lon="1.3902">
        <ele>125</ele>
        <time>2025-04-16T10:14:44Z</time>
      </trkpt>
      <trkpt lat="43.65175" lon="1.3902">
        <ele>125</ele>
        <time>2025-04-16T10:14:45Z</time>
      </trkpt>
      <trkpt lat="43.65173" lon="1.39021">
        <ele>125</ele>
        <time>2025-04-16T10:14:46Z</time>
      </trkpt>
      <trkpt lat="43.6517" lon="1.39021">
        <ele>125</ele>
        <time>2025-04-16T10:14:47Z</time>
      </trkpt>
      <trkpt lat="43.65168" lon="1.39022">
        <ele>125</ele>
        <time>2025-04-16T10:14:48Z</time>
      </trkpt>
      <trkpt lat="43.65165" lon="1.39021">
        <ele>125</ele>
        <time>2025-04-16T10:14:49Z</time>
      </trkpt>
      <trkpt lat="43.65163" lon="1.39021">
        <ele>125</ele>
        <time>2025-04-16T10:14:50Z</time>
      </trkpt>
      <trkpt lat="43.6516" lon="1.39021">
        <ele>125</ele>
        <time>2025-04-16T10:14:51Z</time>
      </trkpt>
      <trkpt lat="43.65157" lon="1.39021">
        <ele>125</ele>
        <time>2025-04-16T10:14:52Z</time>
      </trkpt>
      <trkpt lat="43.65154" lon="1.39022">
        <ele>125</ele>
        <time>2025-04-16T10:14:53Z</time>
      </trkpt>
      <trkpt lat="43.65151" lon="1.39022">
        <ele>125</ele>
        <time>2025-04-16T10:14:54Z</time>
      </trkpt>
      <trkpt lat="43.65148" lon="1.39022">
        <ele>125</ele>
        <time>2025-04-16T10:14:55Z</time>
      </trkpt>
      <trkpt lat="43.65146" lon="1.39022">
        <ele>125</ele>
        <time>2025-04-16T10:14:56Z</time>
      </trkpt>
      <trkpt lat="43.65143" lon="1.39022">
        <ele>125</ele>
        <time>2025-04-16T10:14:57Z</time>
      </trkpt>
      <trkpt lat="43.6514" lon="1.39022">
        <ele>125</ele>
        <time>2025-04-16T10:14:58Z</time>
      </trkpt>
      <trkpt lat="43.65138" lon="1.39022">
        <ele>125</ele>
        <time>2025-04-16T10:14:59Z</time>
      </trkpt>
      <trkpt lat="43.65136" lon="1.39022">
        <ele>125</ele>
        <time>2025-04-16T10:15:00Z</time>
      </trkpt>
      <trkpt lat="43.65133" lon="1.39022">
        <ele>125</ele>
        <time>2025-04-16T10:15:01Z</time>
      </trkpt>
      <trkpt lat="43.65131" lon="1.39021">
        <ele>124</ele>
        <time>2025-04-16T10:15:02Z</time>
      </trkpt>
      <trkpt lat="43.65128" lon="1.39021">
        <ele>124</ele>
        <time>2025-04-16T10:15:03Z</time>
      </trkpt>
      <trkpt lat="43.65126" lon="1.39021">
        <ele>125</ele>
        <time>2025-04-16T10:15:04Z</time>
      </trkpt>
      <trkpt lat="43.65123" lon="1.39021">
        <ele>125</ele>
        <time>2025-04-16T10:15:05Z</time>
      </trkpt>
      <trkpt lat="43.65121" lon="1.39021">
        <ele>125</ele>
        <time>2025-04-16T10:15:06Z</time>
      </trkpt>
      <trkpt lat="43.65118" lon="1.39021">
        <ele>125</ele>
        <time>2025-04-16T10:15:07Z</time>
      </trkpt>
      <trkpt lat="43.65116" lon="1.39021">
        <ele>125</ele>
        <time>2025-04-16T10:15:08Z</time>
      </trkpt>
      <trkpt lat="43.65113" lon="1.39021">
        <ele>125</ele>
        <time>2025-04-16T10:15:09Z</time>
      </trkpt>
      <trkpt lat="43.6511" lon="1.39021">
        <ele>125</ele>
        <time>2025-04-16T10:15:10Z</time>
      </trkpt>
      <trkpt lat="43.65108" lon="1.39021">
        <ele>125</ele>
        <time>2025-04-16T10:15:11Z</time>
      </trkpt>
      <trkpt lat="43.65106" lon="1.3902">
        <ele>125</ele>
        <time>2025-04-16T10:15:12Z</time>
      </trkpt>
      <trkpt lat="43.65103" lon="1.3902">
        <ele>125</ele>
        <time>2025-04-16T10:15:13Z</time>
      </trkpt>
      <trkpt lat="43.65101" lon="1.3902">
        <ele>125</ele>
        <time>2025-04-16T10:15:14Z</time>
      </trkpt>
      <trkpt lat="43.65098" lon="1.3902">
        <ele>125</ele>
        <time>2025-04-16T10:15:15Z</time>
      </trkpt>
      <trkpt lat="43.65096" lon="1.39019">
        <ele>125</ele>
        <time>2025-04-16T10:15:16Z</time>
      </trkpt>
      <trkpt lat="43.65093" lon="1.39019">
        <ele>125</ele>
        <time>2025-04-16T10:15:17Z</time>
      </trkpt>
      <trkpt lat="43.65091" lon="1.3902">
        <ele>125</ele>
        <time>2025-04-16T10:15:18Z</time>
      </trkpt>
      <trkpt lat="43.65089" lon="1.39021">
        <ele>125</ele>
        <time>2025-04-16T10:15:19Z</time>
      </trkpt>
      <trkpt lat="43.65087" lon="1.39022">
        <ele>125</ele>
        <time>2025-04-16T10:15:20Z</time>
      </trkpt>
      <trkpt lat="43.65085" lon="1.39023">
        <ele>125</ele>
        <time>2025-04-16T10:15:21Z</time>
      </trkpt>
      <trkpt lat="43.65082" lon="1.39024">
        <ele>125</ele>
        <time>2025-04-16T10:15:22Z</time>
      </trkpt>
      <trkpt lat="43.6508" lon="1.39026">
        <ele>125</ele>
        <time>2025-04-16T10:15:23Z</time>
      </trkpt>
      <trkpt lat="43.65078" lon="1.39028">
        <ele>125</ele>
        <time>2025-04-16T10:15:24Z</time>
      </trkpt>
      <trkpt lat="43.65076" lon="1.3903">
        <ele>125</ele>
        <time>2025-04-16T10:15:25Z</time>
      </trkpt>
      <trkpt lat="43.65074" lon="1.39032">
        <ele>125</ele>
        <time>2025-04-16T10:15:26Z</time>
      </trkpt>
      <trkpt lat="43.65072" lon="1.39034">
        <ele>125</ele>
        <time>2025-04-16T10:15:27Z</time>
      </trkpt>
      <trkpt lat="43.6507" lon="1.39037">
        <ele>126</ele>
        <time>2025-04-16T10:15:28Z</time>
      </trkpt>
      <trkpt lat="43.65069" lon="1.3904">
        <ele>126</ele>
        <time>2025-04-16T10:15:29Z</time>
      </trkpt>
      <trkpt lat="43.65069" lon="1.39043">
        <ele>126</ele>
        <time>2025-04-16T10:15:30Z</time>
      </trkpt>
      <trkpt lat="43.65068" lon="1.39047">
        <ele>126</ele>
        <time>2025-04-16T10:15:31Z</time>
      </trkpt>
      <trkpt lat="43.65068" lon="1.39051">
        <ele>126</ele>
        <time>2025-04-16T10:15:32Z</time>
      </trkpt>
      <trkpt lat="43.65069" lon="1.39055">
        <ele>126</ele>
        <time>2025-04-16T10:15:33Z</time>
      </trkpt>
      <trkpt lat="43.6507" lon="1.39058">
        <ele>126</ele>
        <time>2025-04-16T10:15:34Z</time>
      </trkpt>
      <trkpt lat="43.6507" lon="1.39062">
        <ele>126</ele>
        <time>2025-04-16T10:15:35Z</time>
      </trkpt>
      <trkpt lat="43.6507" lon="1.39066">
        <ele>126</ele>
        <time>2025-04-16T10:15:36Z</time>
      </trkpt>
      <trkpt lat="43.6507" lon="1.3907">
        <ele>126</ele>
        <time>2025-04-16T10:15:37Z</time>
      </trkpt>
      <trkpt lat="43.65071" lon="1.39073">
        <ele>126</ele>
        <time>2025-04-16T10:15:38Z</time>
      </trkpt>
      <trkpt lat="43.65071" lon="1.39077">
        <ele>126</ele>
        <time>2025-04-16T10:15:39Z</time>
      </trkpt>
      <trkpt lat="43.65071" lon="1.39081">
        <ele>126</ele>
        <time>2025-04-16T10:15:40Z</time>
      </trkpt>
      <trkpt lat="43.65071" lon="1.39085">
        <ele>126</ele>
        <time>2025-04-16T10:15:41Z</time>
      </trkpt>
      <trkpt lat="43.65071" lon="1.39088">
        <ele>126</ele>
        <time>2025-04-16T10:15:42Z</time>
      </trkpt>
      <trkpt lat="43.65072" lon="1.39091">
        <ele>126</ele>
        <time>2025-04-16T10:15:43Z</time>
      </trkpt>
      <trkpt lat="43.65072" lon="1.39095">
        <ele>126</ele>
        <time>2025-04-16T10:15:44Z</time>
      </trkpt>
      <trkpt lat="43.65072" lon="1.39098">
        <ele>126</ele>
        <time>2025-04-16T10:15:45Z</time>
      </trkpt>
      <trkpt lat="43.65073" lon="1.39101">
        <ele>126</ele>
        <time>2025-04-16T10:15:46Z</time>
      </trkpt>
      <trkpt lat="43.65074" lon="1.39104">
        <ele>126</ele>
        <time>2025-04-16T10:15:47Z</time>
      </trkpt>
      <trkpt lat="43.65074" lon="1.39108">
        <ele>126</ele>
        <time>2025-04-16T10:15:48Z</time>
      </trkpt>
      <trkpt lat="43.65074" lon="1.39111">
        <ele>126</ele>
        <time>2025-04-16T10:15:49Z</time>
      </trkpt>
      <trkpt lat="43.65074" lon="1.39115">
        <ele>126</ele>
        <time>2025-04-16T10:15:50Z</time>
      </trkpt>
      <trkpt lat="43.65073" lon="1.39119">
        <ele>126</ele>
        <time>2025-04-16T10:15:51Z</time>
      </trkpt>
      <trkpt lat="43.65073" lon="1.39123">
        <ele>126</ele>
        <time>2025-04-16T10:15:52Z</time>
      </trkpt>
      <trkpt lat="43.65072" lon="1.39127">
        <ele>126</ele>
        <time>2025-04-16T10:15:53Z</time>
      </trkpt>
      <trkpt lat="43.65071" lon="1.3913">
        <ele>126</ele>
        <time>2025-04-16T10:15:54Z</time>
      </trkpt>
      <trkpt lat="43.6507" lon="1.39133">
        <ele>126</ele>
        <time>2025-04-16T10:15:55Z</time>
      </trkpt>
      <trkpt lat="43.65069" lon="1.39136">
        <ele>126</ele>
        <time>2025-04-16T10:15:56Z</time>
      </trkpt>
      <trkpt lat="43.65066" lon="1.39139">
        <ele>126</ele>
        <time>2025-04-16T10:15:57Z</time>
      </trkpt>
      <trkpt lat="43.65064" lon="1.39141">
        <ele>126</ele>
        <time>2025-04-16T10:15:58Z</time>
      </trkpt>
      <trkpt lat="43.65062" lon="1.39143">
        <ele>126</ele>
        <time>2025-04-16T10:15:59Z</time>
      </trkpt>
      <trkpt lat="43.65059" lon="1.39144">
        <ele>126</ele>
        <time>2025-04-16T10:16:00Z</time>
      </trkpt>
      <trkpt lat="43.65056" lon="1.39145">
        <ele>126</ele>
        <time>2025-04-16T10:16:01Z</time>
      </trkpt>
      <trkpt lat="43.65054" lon="1.39147">
        <ele>126</ele>
        <time>2025-04-16T10:16:02Z</time>
      </trkpt>
      <trkpt lat="43.65051" lon="1.39148">
        <ele>126</ele>
        <time>2025-04-16T10:16:03Z</time>
      </trkpt>
      <trkpt lat="43.65048" lon="1.39148">
        <ele>126</ele>
        <time>2025-04-16T10:16:04Z</time>
      </trkpt>
      <trkpt lat="43.65045" lon="1.39149">
        <ele>126</ele>
        <time>2025-04-16T10:16:05Z</time>
      </trkpt>
      <trkpt lat="43.65043" lon="1.39149">
        <ele>126</ele>
        <time>2025-04-16T10:16:06Z</time>
      </trkpt>
      <trkpt lat="43.6504" lon="1.3915">
        <ele>126</ele>
        <time>2025-04-16T10:16:07Z</time>
      </trkpt>
      <trkpt lat="43.65037" lon="1.3915">
        <ele>126</ele>
        <time>2025-04-16T10:16:08Z</time>
      </trkpt>
      <trkpt lat="43.65034" lon="1.39151">
        <ele>126</ele>
        <time>2025-04-16T10:16:09Z</time>
      </trkpt>
      <trkpt lat="43.65032" lon="1.39151">
        <ele>126</ele>
        <time>2025-04-16T10:16:10Z</time>
      </trkpt>
      <trkpt lat="43.65029" lon="1.39152">
        <ele>126</ele>
        <time>2025-04-16T10:16:11Z</time>
      </trkpt>
      <trkpt lat="43.65026" lon="1.39153">
        <ele>126</ele>
        <time>2025-04-16T10:16:12Z</time>
      </trkpt>
      <trkpt lat="43.65024" lon="1.39153">
        <ele>126</ele>
        <time>2025-04-16T10:16:13Z</time>
      </trkpt>
      <trkpt lat="43.65021" lon="1.39153">
        <ele>126</ele>
        <time>2025-04-16T10:16:14Z</time>
      </trkpt>
      <trkpt lat="43.65019" lon="1.39154">
        <ele>126</ele>
        <time>2025-04-16T10:16:15Z</time>
      </trkpt>
      <trkpt lat="43.65016" lon="1.39154">
        <ele>126</ele>
        <time>2025-04-16T10:16:16Z</time>
      </trkpt>
      <trkpt lat="43.65013" lon="1.39154">
        <ele>126</ele>
        <time>2025-04-16T10:16:17Z</time>
      </trkpt>
      <trkpt lat="43.65011" lon="1.39155">
        <ele>126</ele>
        <time>2025-04-16T10:16:18Z</time>
      </trkpt>
      <trkpt lat="43.65008" lon="1.39155">
        <ele>126</ele>
        <time>2025-04-16T10:16:19Z</time>
      </trkpt>
      <trkpt lat="43.65005" lon="1.39156">
        <ele>126</ele>
        <time>2025-04-16T10:16:20Z</time>
      </trkpt>
      <trkpt lat="43.65002" lon="1.39157">
        <ele>126</ele>
        <time>2025-04-16T10:16:21Z</time>
      </trkpt>
      <trkpt lat="43.65" lon="1.39158">
        <ele>126</ele>
        <time>2025-04-16T10:16:22Z</time>
      </trkpt>
      <trkpt lat="43.64997" lon="1.39158">
        <ele>126</ele>
        <time>2025-04-16T10:16:23Z</time>
      </trkpt>
      <trkpt lat="43.64994" lon="1.39159">
        <ele>126</ele>
        <time>2025-04-16T10:16:24Z</time>
      </trkpt>
      <trkpt lat="43.64991" lon="1.39159">
        <ele>126</ele>
        <time>2025-04-16T10:16:25Z</time>
      </trkpt>
      <trkpt lat="43.64988" lon="1.3916">
        <ele>126</ele>
        <time>2025-04-16T10:16:26Z</time>
      </trkpt>
      <trkpt lat="43.64986" lon="1.3916">
        <ele>126</ele>
        <time>2025-04-16T10:16:27Z</time>
      </trkpt>
      <trkpt lat="43.64983" lon="1.39161">
        <ele>126</ele>
        <time>2025-04-16T10:16:28Z</time>
      </trkpt>
      <trkpt lat="43.6498" lon="1.39161">
        <ele>126</ele>
        <time>2025-04-16T10:16:29Z</time>
      </trkpt>
      <trkpt lat="43.64978" lon="1.39162">
        <ele>126</ele>
        <time>2025-04-16T10:16:30Z</time>
      </trkpt>
      <trkpt lat="43.64975" lon="1.39163">
        <ele>126</ele>
        <time>2025-04-16T10:16:31Z</time>
      </trkpt>
      <trkpt lat="43.64973" lon="1.39163">
        <ele>126</ele>
        <time>2025-04-16T10:16:32Z</time>
      </trkpt>
      <trkpt lat="43.6497" lon="1.39163">
        <ele>126</ele>
        <time>2025-04-16T10:16:33Z</time>
      </trkpt>
      <trkpt lat="43.64967" lon="1.39164">
        <ele>126</ele>
        <time>2025-04-16T10:16:34Z</time>
      </trkpt>
      <trkpt lat="43.64965" lon="1.39164">
        <ele>126</ele>
        <time>2025-04-16T10:16:35Z</time>
      </trkpt>
      <trkpt lat="43.64962" lon="1.39164">
        <ele>126</ele>
        <time>2025-04-16T10:16:36Z</time>
      </trkpt>
      <trkpt lat="43.64959" lon="1.39163">
        <ele>126</ele>
        <time>2025-04-16T10:16:37Z</time>
      </trkpt>
      <trkpt lat="43.64956" lon="1.39161">
        <ele>126</ele>
        <time>2025-04-16T10:16:38Z</time>
      </trkpt>
      <trkpt lat="43.64955" lon="1.39158">
        <ele>126</ele>
        <time>2025-04-16T10:16:39Z</time>
      </trkpt>
      <trkpt lat="43.64953" lon="1.39154">
        <ele>126</ele>
        <time>2025-04-16T10:16:40Z</time>
      </trkpt>
      <trkpt lat="43.64952" lon="1.39151">
        <ele>126</ele>
        <time>2025-04-16T10:16:41Z</time>
      </trkpt>
      <trkpt lat="43.6495" lon="1.39147">
        <ele>126</ele>
        <time>2025-04-16T10:16:42Z</time>
      </trkpt>
      <trkpt lat="43.64949" lon="1.39143">
        <ele>126</ele>
        <time>2025-04-16T10:16:43Z</time>
      </trkpt>
      <trkpt lat="43.64948" lon="1.39139">
        <ele>126</ele>
        <time>2025-04-16T10:16:44Z</time>
      </trkpt>
      <trkpt lat="43.64947" lon="1.39135">
        <ele>126</ele>
        <time>2025-04-16T10:16:45Z</time>
      </trkpt>
      <trkpt lat="43.64947" lon="1.39131">
        <ele>126</ele>
        <time>2025-04-16T10:16:46Z</time>
      </trkpt>
      <trkpt lat="43.64945" lon="1.39127">
        <ele>126</ele>
        <time>2025-04-16T10:16:47Z</time>
      </trkpt>
      <trkpt lat="43.64944" lon="1.39124">
        <ele>126</ele>
        <time>2025-04-16T10:16:48Z</time>
      </trkpt>
      <trkpt lat="43.64942" lon="1.39121">
        <ele>126</ele>
        <time>2025-04-16T10:16:49Z</time>
      </trkpt>
      <trkpt lat="43.6494" lon="1.39119">
        <ele>126</ele>
        <time>2025-04-16T10:16:50Z</time>
      </trkpt>
      <trkpt lat="43.64938" lon="1.39118">
        <ele>126</ele>
        <time>2025-04-16T10:16:51Z</time>
      </trkpt>
      <trkpt lat="43.64935" lon="1.39117">
        <ele>126</ele>
        <time>2025-04-16T10:16:52Z</time>
      </trkpt>
      <trkpt lat="43.64932" lon="1.39117">
        <ele>126</ele>
        <time>2025-04-16T10:16:53Z</time>
      </trkpt>
      <trkpt lat="43.6493" lon="1.39117">
        <ele>126</ele>
        <time>2025-04-16T10:16:54Z</time>
      </trkpt>
      <trkpt lat="43.64928" lon="1.39117">
        <ele>126</ele>
        <time>2025-04-16T10:16:55Z</time>
      </trkpt>
      <trkpt lat="43.64925" lon="1.39117">
        <ele>126</ele>
        <time>2025-04-16T10:16:56Z</time>
      </trkpt>
      <trkpt lat="43.64922" lon="1.39117">
        <ele>126</ele>
        <time>2025-04-16T10:16:57Z</time>
      </trkpt>
      <trkpt lat="43.6492" lon="1.39117">
        <ele>126</ele>
        <time>2025-04-16T10:16:58Z</time>
      </trkpt>
      <trkpt lat="43.64917" lon="1.39117">
        <ele>126</ele>
        <time>2025-04-16T10:16:59Z</time>
      </trkpt>
      <trkpt lat="43.64915" lon="1.39117">
        <ele>126</ele>
        <time>2025-04-16T10:17:00Z</time>
      </trkpt>
      <trkpt lat="43.64912" lon="1.39117">
        <ele>126</ele>
        <time>2025-04-16T10:17:01Z</time>
      </trkpt>
      <trkpt lat="43.64909" lon="1.39117">
        <ele>126</ele>
        <time>2025-04-16T10:17:02Z</time>
      </trkpt>
      <trkpt lat="43.64907" lon="1.39117">
        <ele>126</ele>
        <time>2025-04-16T10:17:03Z</time>
      </trkpt>
      <trkpt lat="43.64904" lon="1.39118">
        <ele>126</ele>
        <time>2025-04-16T10:17:04Z</time>
      </trkpt>
      <trkpt lat="43.64901" lon="1.39119">
        <ele>126</ele>
        <time>2025-04-16T10:17:05Z</time>
      </trkpt>
      <trkpt lat="43.64899" lon="1.3912">
        <ele>126</ele>
        <time>2025-04-16T10:17:06Z</time>
      </trkpt>
      <trkpt lat="43.64896" lon="1.39121">
        <ele>126</ele>
        <time>2025-04-16T10:17:07Z</time>
      </trkpt>
      <trkpt lat="43.64893" lon="1.39122">
        <ele>126</ele>
        <time>2025-04-16T10:17:08Z</time>
      </trkpt>
      <trkpt lat="43.6489" lon="1.39122">
        <ele>126</ele>
        <time>2025-04-16T10:17:09Z</time>
      </trkpt>
      <trkpt lat="43.64888" lon="1.39123">
        <ele>126</ele>
        <time>2025-04-16T10:17:10Z</time>
      </trkpt>
      <trkpt lat="43.64885" lon="1.39124">
        <ele>126</ele>
        <time>2025-04-16T10:17:11Z</time>
      </trkpt>
      <trkpt lat="43.64882" lon="1.39124">
        <ele>126</ele>
        <time>2025-04-16T10:17:12Z</time>
      </trkpt>
      <trkpt lat="43.6488" lon="1.39125">
        <ele>126</ele>
        <time>2025-04-16T10:17:13Z</time>
      </trkpt>
      <trkpt lat="43.64877" lon="1.39126">
        <ele>126</ele>
        <time>2025-04-16T10:17:14Z</time>
      </trkpt>
      <trkpt lat="43.64874" lon="1.39126">
        <ele>126</ele>
        <time>2025-04-16T10:17:15Z</time>
      </trkpt>
      <trkpt lat="43.64872" lon="1.39127">
        <ele>126</ele>
        <time>2025-04-16T10:17:16Z</time>
      </trkpt>
      <trkpt lat="43.64869" lon="1.39128">
        <ele>126</ele>
        <time>2025-04-16T10:17:17Z</time>
      </trkpt>
      <trkpt lat="43.64866" lon="1.39129">
        <ele>126</ele>
        <time>2025-04-16T10:17:18Z</time>
      </trkpt>
      <trkpt lat="43.64863" lon="1.3913">
        <ele>126</ele>
        <time>2025-04-16T10:17:19Z</time>
      </trkpt>
      <trkpt lat="43.64861" lon="1.39131">
        <ele>126</ele>
        <time>2025-04-16T10:17:20Z</time>
      </trkpt>
      <trkpt lat="43.64858" lon="1.39132">
        <ele>126</ele>
        <time>2025-04-16T10:17:21Z</time>
      </trkpt>
      <trkpt lat="43.64856" lon="1.39133">
        <ele>126</ele>
        <time>2025-04-16T10:17:22Z</time>
      </trkpt>
      <trkpt lat="43.64853" lon="1.39133">
        <ele>126</ele>
        <time>2025-04-16T10:17:23Z</time>
      </trkpt>
      <trkpt lat="43.64851" lon="1.39134">
        <ele>126</ele>
        <time>2025-04-16T10:17:24Z</time>
      </trkpt>
      <trkpt lat="43.64849" lon="1.39134">
        <ele>126</ele>
        <time>2025-04-16T10:17:25Z</time>
      </trkpt>
      <trkpt lat="43.64846" lon="1.39135">
        <ele>126</ele>
        <time>2025-04-16T10:17:26Z</time>
      </trkpt>
      <trkpt lat="43.64843" lon="1.39136">
        <ele>126</ele>
        <time>2025-04-16T10:17:27Z</time>
      </trkpt>
      <trkpt lat="43.64841" lon="1.39137">
        <ele>126</ele>
        <time>2025-04-16T10:17:28Z</time>
      </trkpt>
      <trkpt lat="43.64838" lon="1.39139">
        <ele>126</ele>
        <time>2025-04-16T10:17:29Z</time>
      </trkpt>
      <trkpt lat="43.64836" lon="1.3914">
        <ele>126</ele>
        <time>2025-04-16T10:17:30Z</time>
      </trkpt>
      <trkpt lat="43.64834" lon="1.39142">
        <ele>126</ele>
        <time>2025-04-16T10:17:31Z</time>
      </trkpt>
      <trkpt lat="43.64831" lon="1.39144">
        <ele>126</ele>
        <time>2025-04-16T10:17:32Z</time>
      </trkpt>
      <trkpt lat="43.64829" lon="1.39146">
        <ele>126</ele>
        <time>2025-04-16T10:17:33Z</time>
      </trkpt>
      <trkpt lat="43.64827" lon="1.39148">
        <ele>126</ele>
        <time>2025-04-16T10:17:34Z</time>
      </trkpt>
      <trkpt lat="43.64824" lon="1.39149">
        <ele>126</ele>
        <time>2025-04-16T10:17:35Z</time>
      </trkpt>
      <trkpt lat="43.64822" lon="1.39151">
        <ele>126</ele>
        <time>2025-04-16T10:17:36Z</time>
      </trkpt>
      <trkpt lat="43.64819" lon="1.39153">
        <ele>126</ele>
        <time>2025-04-16T10:17:37Z</time>
      </trkpt>
      <trkpt lat="43.64817" lon="1.39154">
        <ele>126</ele>
        <time>2025-04-16T10:17:38Z</time>
      </trkpt>
      <trkpt lat="43.64815" lon="1.39156">
        <ele>126</ele>
        <time>2025-04-16T10:17:39Z</time>
      </trkpt>
      <trkpt lat="43.64812" lon="1.39158">
        <ele>126</ele>
        <time>2025-04-16T10:17:40Z</time>
      </trkpt>
      <trkpt lat="43.6481" lon="1.3916">
        <ele>126</ele>
        <time>2025-04-16T10:17:41Z</time>
      </trkpt>
      <trkpt lat="43.64808" lon="1.39162">
        <ele>126</ele>
        <time>2025-04-16T10:17:42Z</time>
      </trkpt>
      <trkpt lat="43.64805" lon="1.39164">
        <ele>126</ele>
        <time>2025-04-16T10:17:43Z</time>
      </trkpt>
      <trkpt lat="43.64802" lon="1.39165">
        <ele>126</ele>
        <time>2025-04-16T10:17:44Z</time>
      </trkpt>
      <trkpt lat="43.64799" lon="1.39167">
        <ele>126</ele>
        <time>2025-04-16T10:17:45Z</time>
      </trkpt>
      <trkpt lat="43.64796" lon="1.39168">
        <ele>126</ele>
        <time>2025-04-16T10:17:46Z</time>
      </trkpt>
      <trkpt lat="43.64794" lon="1.3917">
        <ele>126</ele>
        <time>2025-04-16T10:17:47Z</time>
      </trkpt>
      <trkpt lat="43.64791" lon="1.39172">
        <ele>126</ele>
        <time>2025-04-16T10:17:48Z</time>
      </trkpt>
      <trkpt lat="43.64789" lon="1.39174">
        <ele>126</ele>
        <time>2025-04-16T10:17:49Z</time>
      </trkpt>
      <trkpt lat="43.64786" lon="1.39175">
        <ele>126</ele>
        <time>2025-04-16T10:17:50Z</time>
      </trkpt>
      <trkpt lat="43.64783" lon="1.39176">
        <ele>126</ele>
        <time>2025-04-16T10:17:51Z</time>
      </trkpt>
      <trkpt lat="43.64781" lon="1.39178">
        <ele>126</ele>
        <time>2025-04-16T10:17:52Z</time>
      </trkpt>
      <trkpt lat="43.64778" lon="1.3918">
        <ele>126</ele>
        <time>2025-04-16T10:17:53Z</time>
      </trkpt>
      <trkpt lat="43.64775" lon="1.39181">
        <ele>126</ele>
        <time>2025-04-16T10:17:54Z</time>
      </trkpt>
      <trkpt lat="43.64773" lon="1.39182">
        <ele>126</ele>
        <time>2025-04-16T10:17:55Z</time>
      </trkpt>
      <trkpt lat="43.64771" lon="1.39183">
        <ele>126</ele>
        <time>2025-04-16T10:17:56Z</time>
      </trkpt>
      <trkpt lat="43.64768" lon="1.39185">
        <ele>126</ele>
        <time>2025-04-16T10:17:57Z</time>
      </trkpt>
      <trkpt lat="43.64766" lon="1.39186">
        <ele>126</ele>
        <time>2025-04-16T10:17:58Z</time>
      </trkpt>
      <trkpt lat="43.64763" lon="1.39188">
        <ele>126</ele>
        <time>2025-04-16T10:17:59Z</time>
      </trkpt>
      <trkpt lat="43.64761" lon="1.3919">
        <ele>126</ele>
        <time>2025-04-16T10:18:00Z</time>
      </trkpt>
      <trkpt lat="43.64758" lon="1.39191">
        <ele>126</ele>
        <time>2025-04-16T10:18:01Z</time>
      </trkpt>
      <trkpt lat="43.64756" lon="1.39193">
        <ele>126</ele>
        <time>2025-04-16T10:18:02Z</time>
      </trkpt>
      <trkpt lat="43.64754" lon="1.39194">
        <ele>126</ele>
        <time>2025-04-16T10:18:03Z</time>
      </trkpt>
      <trkpt lat="43.64751" lon="1.39196">
        <ele>126</ele>
        <time>2025-04-16T10:18:04Z</time>
      </trkpt>
      <trkpt lat="43.64749" lon="1.39197">
        <ele>126</ele>
        <time>2025-04-16T10:18:05Z</time>
      </trkpt>
      <trkpt lat="43.64747" lon="1.392">
        <ele>126</ele>
        <time>2025-04-16T10:18:06Z</time>
      </trkpt>
      <trkpt lat="43.64744" lon="1.39202">
        <ele>126</ele>
        <time>2025-04-16T10:18:07Z</time>
      </trkpt>
      <trkpt lat="43.64741" lon="1.39203">
        <ele>126</ele>
        <time>2025-04-16T10:18:08Z</time>
      </trkpt>
      <trkpt lat="43.64739" lon="1.39205">
        <ele>126</ele>
        <time>2025-04-16T10:18:09Z</time>
      </trkpt>
      <trkpt lat="43.64737" lon="1.39207">
        <ele>126</ele>
        <time>2025-04-16T10:18:10Z</time>
      </trkpt>
      <trkpt lat="43.64734" lon="1.39208">
        <ele>126</ele>
        <time>2025-04-16T10:18:11Z</time>
      </trkpt>
      <trkpt lat="43.64732" lon="1.3921">
        <ele>126</ele>
        <time>2025-04-16T10:18:12Z</time>
      </trkpt>
      <trkpt lat="43.64729" lon="1.39212">
        <ele>126</ele>
        <time>2025-04-16T10:18:13Z</time>
      </trkpt>
      <trkpt lat="43.64727" lon="1.39214">
        <ele>126</ele>
        <time>2025-04-16T10:18:14Z</time>
      </trkpt>
      <trkpt lat="43.64725" lon="1.39215">
        <ele>126</ele>
        <time>2025-04-16T10:18:15Z</time>
      </trkpt>
      <trkpt lat="43.64722" lon="1.39216">
        <ele>126</ele>
        <time>2025-04-16T10:18:16Z</time>
      </trkpt>
      <trkpt lat="43.6472" lon="1.39218">
        <ele>126</ele>
        <time>2025-04-16T10:18:17Z</time>
      </trkpt>
      <trkpt lat="43.64717" lon="1.39219">
        <ele>126</ele>
        <time>2025-04-16T10:18:18Z</time>
      </trkpt>
      <trkpt lat="43.64714" lon="1.39221">
        <ele>126</ele>
        <time>2025-04-16T10:18:19Z</time>
      </trkpt>
      <trkpt lat="43.64712" lon="1.39222">
        <ele>126</ele>
        <time>2025-04-16T10:18:20Z</time>
      </trkpt>
      <trkpt lat="43.6471" lon="1.39224">
        <ele>126</ele>
        <time>2025-04-16T10:18:21Z</time>
      </trkpt>
      <trkpt lat="43.64707" lon="1.39226">
        <ele>126</ele>
        <time>2025-04-16T10:18:22Z</time>
      </trkpt>
      <trkpt lat="43.64705" lon="1.39228">
        <ele>126</ele>
        <time>2025-04-16T10:18:23Z</time>
      </trkpt>
      <trkpt lat="43.64702" lon="1.39229">
        <ele>126</ele>
        <time>2025-04-16T10:18:24Z</time>
      </trkpt>
      <trkpt lat="43.647" lon="1.39231">
        <ele>126</ele>
        <time>2025-04-16T10:18:25Z</time>
      </trkpt>
      <trkpt lat="43.64697" lon="1.39232">
        <ele>126</ele>
        <time>2025-04-16T10:18:26Z</time>
      </trkpt>
      <trkpt lat="43.64694" lon="1.39234">
        <ele>126</ele>
        <time>2025-04-16T10:18:27Z</time>
      </trkpt>
      <trkpt lat="43.64692" lon="1.39236">
        <ele>126</ele>
        <time>2025-04-16T10:18:28Z</time>
      </trkpt>
      <trkpt lat="43.64689" lon="1.39237">
        <ele>126</ele>
        <time>2025-04-16T10:18:29Z</time>
      </trkpt>
      <trkpt lat="43.64687" lon="1.39239">
        <ele>126</ele>
        <time>2025-04-16T10:18:30Z</time>
      </trkpt>
      <trkpt lat="43.64684" lon="1.3924">
        <ele>126</ele>
        <time>2025-04-16T10:18:31Z</time>
      </trkpt>
      <trkpt lat="43.64682" lon="1.39242">
        <ele>126</ele>
        <time>2025-04-16T10:18:32Z</time>
      </trkpt>
      <trkpt lat="43.64679" lon="1.39243">
        <ele>126</ele>
        <time>2025-04-16T10:18:33Z</time>
      </trkpt>
      <trkpt lat="43.64677" lon="1.39245">
        <ele>126</ele>
        <time>2025-04-16T10:18:34Z</time>
      </trkpt>
      <trkpt lat="43.64675" lon="1.39247">
        <ele>126</ele>
        <time>2025-04-16T10:18:35Z</time>
      </trkpt>
      <trkpt lat="43.64672" lon="1.39248">
        <ele>126</ele>
        <time>2025-04-16T10:18:36Z</time>
      </trkpt>
      <trkpt lat="43.64669" lon="1.3925">
        <ele>126</ele>
        <time>2025-04-16T10:18:37Z</time>
      </trkpt>
      <trkpt lat="43.64667" lon="1.39251">
        <ele>126</ele>
        <time>2025-04-16T10:18:38Z</time>
      </trkpt>
      <trkpt lat="43.64664" lon="1.39253">
        <ele>126</ele>
        <time>2025-04-16T10:18:39Z</time>
      </trkpt>
      <trkpt lat="43.64661" lon="1.39254">
        <ele>126</ele>
        <time>2025-04-16T10:18:40Z</time>
      </trkpt>
      <trkpt lat="43.64659" lon="1.39256">
        <ele>126</ele>
        <time>2025-04-16T10:18:41Z</time>
      </trkpt>
      <trkpt lat="43.64657" lon="1.39257">
        <ele>126</ele>
        <time>2025-04-16T10:18:42Z</time>
      </trkpt>
      <trkpt lat="43.64654" lon="1.39258">
        <ele>126</ele>
        <time>2025-04-16T10:18:43Z</time>
      </trkpt>
      <trkpt lat="43.64651" lon="1.3926">
        <ele>126</ele>
        <time>2025-04-16T10:18:44Z</time>
      </trkpt>
      <trkpt lat="43.64649" lon="1.39261">
        <ele>126</ele>
        <time>2025-04-16T10:18:45Z</time>
      </trkpt>
      <trkpt lat="43.64646" lon="1.39262">
        <ele>126</ele>
        <time>2025-04-16T10:18:46Z</time>
      </trkpt>
      <trkpt lat="43.64644" lon="1.39263">
        <ele>126</ele>
        <time>2025-04-16T10:18:47Z</time>
      </trkpt>
      <trkpt lat="43.64642" lon="1.39264">
        <ele>126</ele>
        <time>2025-04-16T10:18:48Z</time>
      </trkpt>
      <trkpt lat="43.6464" lon="1.39265">
        <ele>126</ele>
        <time>2025-04-16T10:18:49Z</time>
      </trkpt>
      <trkpt lat="43.64637" lon="1.39267">
        <ele>126</ele>
        <time>2025-04-16T10:18:50Z</time>
      </trkpt>
      <trkpt lat="43.64634" lon="1.39268">
        <ele>126</ele>
        <time>2025-04-16T10:18:51Z</time>
      </trkpt>
      <trkpt lat="43.64632" lon="1.3927">
        <ele>126</ele>
        <time>2025-04-16T10:18:52Z</time>
      </trkpt>
      <trkpt lat="43.64629" lon="1.39271">
        <ele>126</ele>
        <time>2025-04-16T10:18:53Z</time>
      </trkpt>
      <trkpt lat="43.64627" lon="1.39272">
        <ele>126</ele>
        <time>2025-04-16T10:18:54Z</time>
      </trkpt>
      <trkpt lat="43.64625" lon="1.39272">
        <ele>126</ele>
        <time>2025-04-16T10:18:55Z</time>
      </trkpt>
      <trkpt lat="43.64622" lon="1.39273">
        <ele>126</ele>
        <time>2025-04-16T10:18:56Z</time>
      </trkpt>
      <trkpt lat="43.6462" lon="1.39274">
        <ele>126</ele>
        <time>2025-04-16T10:18:57Z</time>
      </trkpt>
      <trkpt lat="43.64617" lon="1.39275">
        <ele>126</ele>
        <time>2025-04-16T10:18:58Z</time>
      </trkpt>
      <trkpt lat="43.64614" lon="1.39277">
        <ele>125</ele>
        <time>2025-04-16T10:18:59Z</time>
      </trkpt>
      <trkpt lat="43.64611" lon="1.39279">
        <ele>125</ele>
        <time>2025-04-16T10:19:00Z</time>
      </trkpt>
      <trkpt lat="43.64608" lon="1.3928">
        <ele>125</ele>
        <time>2025-04-16T10:19:01Z</time>
      </trkpt>
      <trkpt lat="43.64605" lon="1.39282">
        <ele>125</ele>
        <time>2025-04-16T10:19:02Z</time>
      </trkpt>
      <trkpt lat="43.64602" lon="1.39283">
        <ele>125</ele>
        <time>2025-04-16T10:19:03Z</time>
      </trkpt>
      <trkpt lat="43.646" lon="1.39284">
        <ele>125</ele>
        <time>2025-04-16T10:19:04Z</time>
      </trkpt>
      <trkpt lat="43.64597" lon="1.39285">
        <ele>125</ele>
        <time>2025-04-16T10:19:05Z</time>
      </trkpt>
      <trkpt lat="43.64594" lon="1.39285">
        <ele>125</ele>
        <time>2025-04-16T10:19:06Z</time>
      </trkpt>
      <trkpt lat="43.64592" lon="1.39286">
        <ele>125</ele>
        <time>2025-04-16T10:19:07Z</time>
      </trkpt>
      <trkpt lat="43.64589" lon="1.39287">
        <ele>125</ele>
        <time>2025-04-16T10:19:08Z</time>
      </trkpt>
      <trkpt lat="43.64586" lon="1.39289">
        <ele>126</ele>
        <time>2025-04-16T10:19:09Z</time>
      </trkpt>
      <trkpt lat="43.64583" lon="1.39289">
        <ele>126</ele>
        <time>2025-04-16T10:19:10Z</time>
      </trkpt>
      <trkpt lat="43.6458" lon="1.3929">
        <ele>126</ele>
        <time>2025-04-16T10:19:11Z</time>
      </trkpt>
      <trkpt lat="43.64578" lon="1.39291">
        <ele>126</ele>
        <time>2025-04-16T10:19:12Z</time>
      </trkpt>
      <trkpt lat="43.64575" lon="1.39292">
        <ele>127</ele>
        <time>2025-04-16T10:19:13Z</time>
      </trkpt>
      <trkpt lat="43.64572" lon="1.39294">
        <ele>127</ele>
        <time>2025-04-16T10:19:14Z</time>
      </trkpt>
      <trkpt lat="43.64569" lon="1.39295">
        <ele>127</ele>
        <time>2025-04-16T10:19:15Z</time>
      </trkpt>
      <trkpt lat="43.64566" lon="1.39296">
        <ele>127</ele>
        <time>2025-04-16T10:19:16Z</time>
      </trkpt>
      <trkpt lat="43.64564" lon="1.39297">
        <ele>127</ele>
        <time>2025-04-16T10:19:17Z</time>
      </trkpt>
      <trkpt lat="43.6456" lon="1.39298">
        <ele>127</ele>
        <time>2025-04-16T10:19:18Z</time>
      </trkpt>
      <trkpt lat="43.64557" lon="1.39298">
        <ele>127</ele>
        <time>2025-04-16T10:19:19Z</time>
      </trkpt>
      <trkpt lat="43.64554" lon="1.39299">
        <ele>126</ele>
        <time>2025-04-16T10:19:20Z</time>
      </trkpt>
      <trkpt lat="43.64552" lon="1.393">
        <ele>126</ele>
        <time>2025-04-16T10:19:21Z</time>
      </trkpt>
      <trkpt lat="43.64549" lon="1.39301">
        <ele>126</ele>
        <time>2025-04-16T10:19:22Z</time>
      </trkpt>
      <trkpt lat="43.64546" lon="1.39302">
        <ele>126</ele>
        <time>2025-04-16T10:19:23Z</time>
      </trkpt>
      <trkpt lat="43.64543" lon="1.39303">
        <ele>126</ele>
        <time>2025-04-16T10:19:24Z</time>
      </trkpt>
      <trkpt lat="43.64541" lon="1.39304">
        <ele>126</ele>
        <time>2025-04-16T10:19:25Z</time>
      </trkpt>
      <trkpt lat="43.64538" lon="1.39305">
        <ele>126</ele>
        <time>2025-04-16T10:19:26Z</time>
      </trkpt>
      <trkpt lat="43.64535" lon="1.39306">
        <ele>126</ele>
        <time>2025-04-16T10:19:27Z</time>
      </trkpt>
      <trkpt lat="43.64532" lon="1.39306">
        <ele>126</ele>
        <time>2025-04-16T10:19:28Z</time>
      </trkpt>
      <trkpt lat="43.64529" lon="1.39307">
        <ele>126</ele>
        <time>2025-04-16T10:19:29Z</time>
      </trkpt>
      <trkpt lat="43.64526" lon="1.39309">
        <ele>126</ele>
        <time>2025-04-16T10:19:30Z</time>
      </trkpt>
      <trkpt lat="43.64523" lon="1.39309">
        <ele>126</ele>
        <time>2025-04-16T10:19:31Z</time>
      </trkpt>
      <trkpt lat="43.6452" lon="1.3931">
        <ele>126</ele>
        <time>2025-04-16T10:19:32Z</time>
      </trkpt>
      <trkpt lat="43.64517" lon="1.39311">
        <ele>126</ele>
        <time>2025-04-16T10:19:33Z</time>
      </trkpt>
      <trkpt lat="43.64514" lon="1.39311">
        <ele>126</ele>
        <time>2025-04-16T10:19:34Z</time>
      </trkpt>
      <trkpt lat="43.64511" lon="1.39311">
        <ele>126</ele>
        <time>2025-04-16T10:19:35Z</time>
      </trkpt>
      <trkpt lat="43.64508" lon="1.39311">
        <ele>126</ele>
        <time>2025-04-16T10:19:36Z</time>
      </trkpt>
      <trkpt lat="43.64506" lon="1.39312">
        <ele>126</ele>
        <time>2025-04-16T10:19:37Z</time>
      </trkpt>
      <trkpt lat="43.64503" lon="1.39312">
        <ele>126</ele>
        <time>2025-04-16T10:19:38Z</time>
      </trkpt>
      <trkpt lat="43.645" lon="1.39312">
        <ele>126</ele>
        <time>2025-04-16T10:19:39Z</time>
      </trkpt>
      <trkpt lat="43.64498" lon="1.39312">
        <ele>126</ele>
        <time>2025-04-16T10:19:40Z</time>
      </trkpt>
      <trkpt lat="43.64495" lon="1.39312">
        <ele>126</ele>
        <time>2025-04-16T10:19:41Z</time>
      </trkpt>
      <trkpt lat="43.64492" lon="1.39312">
        <ele>127</ele>
        <time>2025-04-16T10:19:42Z</time>
      </trkpt>
      <trkpt lat="43.64489" lon="1.39312">
        <ele>127</ele>
        <time>2025-04-16T10:19:43Z</time>
      </trkpt>
      <trkpt lat="43.64487" lon="1.39311">
        <ele>127</ele>
        <time>2025-04-16T10:19:44Z</time>
      </trkpt>
      <trkpt lat="43.64484" lon="1.39312">
        <ele>127</ele>
        <time>2025-04-16T10:19:45Z</time>
      </trkpt>
      <trkpt lat="43.64482" lon="1.39312">
        <ele>127</ele>
        <time>2025-04-16T10:19:46Z</time>
      </trkpt>
      <trkpt lat="43.64479" lon="1.39312">
        <ele>127</ele>
        <time>2025-04-16T10:19:47Z</time>
      </trkpt>
      <trkpt lat="43.64477" lon="1.39312">
        <ele>127</ele>
        <time>2025-04-16T10:19:48Z</time>
      </trkpt>
      <trkpt lat="43.64474" lon="1.39312">
        <ele>127</ele>
        <time>2025-04-16T10:19:49Z</time>
      </trkpt>
      <trkpt lat="43.64471" lon="1.39312">
        <ele>127</ele>
        <time>2025-04-16T10:19:50Z</time>
      </trkpt>
      <trkpt lat="43.64469" lon="1.39312">
        <ele>127</ele>
        <time>2025-04-16T10:19:51Z</time>
      </trkpt>
      <trkpt lat="43.64466" lon="1.39312">
        <ele>127</ele>
        <time>2025-04-16T10:19:52Z</time>
      </trkpt>
      <trkpt lat="43.64464" lon="1.39313">
        <ele>129</ele>
        <time>2025-04-16T10:19:53Z</time>
      </trkpt>
      <trkpt lat="43.64462" lon="1.39313">
        <ele>129</ele>
        <time>2025-04-16T10:19:54Z</time>
      </trkpt>
      <trkpt lat="43.64462" lon="1.39313">
        <ele>129</ele>
        <time>2025-04-16T10:19:55Z</time>
      </trkpt>
      <trkpt lat="43.64459" lon="1.39313">
        <ele>129</ele>
        <time>2025-04-16T10:19:56Z</time>
      </trkpt>
      <trkpt lat="43.64405" lon="1.39315">
        <ele>126</ele>
        <time>2025-04-16T10:20:40Z</time>
      </trkpt>
      <trkpt lat="43.64405" lon="1.39315">
        <ele>126</ele>
        <time>2025-04-16T10:20:41Z</time>
      </trkpt>
      <trkpt lat="43.64403" lon="1.39315">
        <ele>126</ele>
        <time>2025-04-16T10:20:42Z</time>
      </trkpt>
      <trkpt lat="43.64403" lon="1.39315">
        <ele>126</ele>
        <time>2025-04-16T10:20:43Z</time>
      </trkpt>
      <trkpt lat="43.64401" lon="1.39316">
        <ele>125</ele>
        <time>2025-04-16T10:20:44Z</time>
      </trkpt>
      <trkpt lat="43.64401" lon="1.39316">
        <ele>125</ele>
        <time>2025-04-16T10:20:45Z</time>
      </trkpt>
      <trkpt lat="43.64398" lon="1.39317">
        <ele>125</ele>
        <time>2025-04-16T10:20:46Z</time>
      </trkpt>
      <trkpt lat="43.64398" lon="1.39317">
        <ele>125</ele>
        <time>2025-04-16T10:20:47Z</time>
      </trkpt>
      <trkpt lat="43.64395" lon="1.39318">
        <ele>125</ele>
        <time>2025-04-16T10:20:48Z</time>
      </trkpt>
      <trkpt lat="43.64395" lon="1.39318">
        <ele>125</ele>
        <time>2025-04-16T10:20:49Z</time>
      </trkpt>
      <trkpt lat="43.64392" lon="1.3932">
        <ele>125</ele>
        <time>2025-04-16T10:20:50Z</time>
      </trkpt>
      <trkpt lat="43.6439" lon="1.39321">
        <ele>125</ele>
        <time>2025-04-16T10:20:51Z</time>
      </trkpt>
      <trkpt lat="43.64388" lon="1.39322">
        <ele>125</ele>
        <time>2025-04-16T10:20:52Z</time>
      </trkpt>
      <trkpt lat="43.64388" lon="1.39322">
        <ele>125</ele>
        <time>2025-04-16T10:20:53Z</time>
      </trkpt>
      <trkpt lat="43.64385" lon="1.39322">
        <ele>126</ele>
        <time>2025-04-16T10:20:54Z</time>
      </trkpt>
      <trkpt lat="43.64385" lon="1.39322">
        <ele>126</ele>
        <time>2025-04-16T10:20:55Z</time>
      </trkpt>
      <trkpt lat="43.64381" lon="1.39323">
        <ele>126</ele>
        <time>2025-04-16T10:20:56Z</time>
      </trkpt>
      <trkpt lat="43.64381" lon="1.39323">
        <ele>126</ele>
        <time>2025-04-16T10:20:57Z</time>
      </trkpt>
      <trkpt lat="43.64378" lon="1.39324">
        <ele>126</ele>
        <time>2025-04-16T10:20:58Z</time>
      </trkpt>
      <trkpt lat="43.64376" lon="1.39324">
        <ele>126</ele>
        <time>2025-04-16T10:20:59Z</time>
      </trkpt>
      <trkpt lat="43.64374" lon="1.39324">
        <ele>126</ele>
        <time>2025-04-16T10:21:00Z</time>
      </trkpt>
      <trkpt lat="43.64374" lon="1.39324">
        <ele>126</ele>
        <time>2025-04-16T10:21:01Z</time>
      </trkpt>
      <trkpt lat="43.64374" lon="1.39324">
        <ele>126</ele>
        <time>2025-04-16T10:21:02Z</time>
      </trkpt>
      <trkpt lat="43.64375" lon="1.39321">
        <ele>126</ele>
        <time>2025-04-16T10:21:03Z</time>
      </trkpt>
      <trkpt lat="43.64375" lon="1.39321">
        <ele>126</ele>
        <time>2025-04-16T10:21:04Z</time>
      </trkpt>
      <trkpt lat="43.64378" lon="1.39319">
        <ele>126</ele>
        <time>2025-04-16T10:21:05Z</time>
      </trkpt>
      <trkpt lat="43.64378" lon="1.39319">
        <ele>126</ele>
        <time>2025-04-16T10:21:06Z</time>
      </trkpt>
      <trkpt lat="43.64381" lon="1.39317">
        <ele>125</ele>
        <time>2025-04-16T10:21:07Z</time>
      </trkpt>
      <trkpt lat="43.64383" lon="1.39316">
        <ele>125</ele>
        <time>2025-04-16T10:21:08Z</time>
      </trkpt>
      <trkpt lat="43.64385" lon="1.39315">
        <ele>125</ele>
        <time>2025-04-16T10:21:09Z</time>
      </trkpt>
      <trkpt lat="43.64387" lon="1.39314">
        <ele>125</ele>
        <time>2025-04-16T10:21:10Z</time>
      </trkpt>
      <trkpt lat="43.64389" lon="1.39314">
        <ele>125</ele>
        <time>2025-04-16T10:21:11Z</time>
      </trkpt>
      <trkpt lat="43.64391" lon="1.39313">
        <ele>125</ele>
        <time>2025-04-16T10:21:12Z</time>
      </trkpt>
      <trkpt lat="43.64393" lon="1.39312">
        <ele>125</ele>
        <time>2025-04-16T10:21:13Z</time>
      </trkpt>
      <trkpt lat="43.64395" lon="1.39311">
        <ele>125</ele>
        <time>2025-04-16T10:21:14Z</time>
      </trkpt>
      <trkpt lat="43.64397" lon="1.39311">
        <ele>125</ele>
        <time>2025-04-16T10:21:15Z</time>
      </trkpt>
      <trkpt lat="43.644" lon="1.3931">
        <ele>125</ele>
        <time>2025-04-16T10:21:16Z</time>
      </trkpt>
      <trkpt lat="43.64402" lon="1.3931">
        <ele>125</ele>
        <time>2025-04-16T10:21:17Z</time>
      </trkpt>
      <trkpt lat="43.64402" lon="1.3931">
        <ele>125</ele>
        <time>2025-04-16T10:21:18Z</time>
      </trkpt>
      <trkpt lat="43.64404" lon="1.3931">
        <ele>125</ele>
        <time>2025-04-16T10:21:19Z</time>
      </trkpt>
      <trkpt lat="43.64404" lon="1.3931">
        <ele>125</ele>
        <time>2025-04-16T10:21:20Z</time>
      </trkpt>
      <trkpt lat="43.64404" lon="1.3931">
        <ele>125</ele>
        <time>2025-04-16T10:21:21Z</time>
      </trkpt>
      <trkpt lat="43.64401" lon="1.39311">
        <ele>125</ele>
        <time>2025-04-16T10:21:22Z</time>
      </trkpt>
      <trkpt lat="43.64401" lon="1.39311">
        <ele>125</ele>
        <time>2025-04-16T10:21:23Z</time>
      </trkpt>
      <trkpt lat="43.64398" lon="1.39313">
        <ele>125</ele>
        <time>2025-04-16T10:21:24Z</time>
      </trkpt>
      <trkpt lat="43.64398" lon="1.39313">
        <ele>125</ele>
        <time>2025-04-16T10:21:25Z</time>
      </trkpt>
      <trkpt lat="43.64394" lon="1.39315">
        <ele>125</ele>
        <time>2025-04-16T10:21:26Z</time>
      </trkpt>
      <trkpt lat="43.64392" lon="1.39316">
        <ele>125</ele>
        <time>2025-04-16T10:21:27Z</time>
      </trkpt>
      <trkpt lat="43.6439" lon="1.39317">
        <ele>125</ele>
        <time>2025-04-16T10:21:28Z</time>
      </trkpt>
      <trkpt lat="43.64388" lon="1.39318">
        <ele>125</ele>
        <time>2025-04-16T10:21:29Z</time>
      </trkpt>
      <trkpt lat="43.64386" lon="1.39319">
        <ele>125</ele>
        <time>2025-04-16T10:21:30Z</time>
      </trkpt>
      <trkpt lat="43.64384" lon="1.3932">
        <ele>125</ele>
        <time>2025-04-16T10:21:31Z</time>
      </trkpt>
      <trkpt lat="43.64382" lon="1.3932">
        <ele>125</ele>
        <time>2025-04-16T10:21:32Z</time>
      </trkpt>
      <trkpt lat="43.6438" lon="1.39321">
        <ele>125</ele>
        <time>2025-04-16T10:21:33Z</time>
      </trkpt>
      <trkpt lat="43.64377" lon="1.39321">
        <ele>125</ele>
        <time>2025-04-16T10:21:34Z</time>
      </trkpt>
      <trkpt lat="43.64375" lon="1.39321">
        <ele>126</ele>
        <time>2025-04-16T10:21:35Z</time>
      </trkpt>
      <trkpt lat="43.64373" lon="1.39321">
        <ele>126</ele>
        <time>2025-04-16T10:21:36Z</time>
      </trkpt>
      <trkpt lat="43.64373" lon="1.39321">
        <ele>126</ele>
        <time>2025-04-16T10:21:37Z</time>
      </trkpt>
      <trkpt lat="43.64373" lon="1.39321">
        <ele>126</ele>
        <time>2025-04-16T10:21:38Z</time>
      </trkpt>
      <trkpt lat="43.64373" lon="1.39321">
        <ele>126</ele>
        <time>2025-04-16T10:21:39Z</time>
      </trkpt>
      <trkpt lat="43.64375" lon="1.39318">
        <ele>126</ele>
        <time>2025-04-16T10:21:40Z</time>
      </trkpt>
      <trkpt lat="43.64376" lon="1.39317">
        <ele>126</ele>
        <time>2025-04-16T10:21:41Z</time>
      </trkpt>
      <trkpt lat="43.64376" lon="1.39317">
        <ele>125</ele>
        <time>2025-04-16T10:21:42Z</time>
      </trkpt>
      <trkpt lat="43.6438" lon="1.39316">
        <ele>125</ele>
        <time>2025-04-16T10:21:43Z</time>
      </trkpt>
      <trkpt lat="43.6438" lon="1.39316">
        <ele>125</ele>
        <time>2025-04-16T10:21:44Z</time>
      </trkpt>
      <trkpt lat="43.64383" lon="1.39315">
        <ele>125</ele>
        <time>2025-04-16T10:21:45Z</time>
      </trkpt>
      <trkpt lat="43.64385" lon="1.39314">
        <ele>125</ele>
        <time>2025-04-16T10:21:46Z</time>
      </trkpt>
      <trkpt lat="43.64387" lon="1.39314">
        <ele>125</ele>
        <time>2025-04-16T10:21:47Z</time>
      </trkpt>
      <trkpt lat="43.64389" lon="1.39313">
        <ele>125</ele>
        <time>2025-04-16T10:21:48Z</time>
      </trkpt>
      <trkpt lat="43.64391" lon="1.39312">
        <ele>125</ele>
        <time>2025-04-16T10:21:49Z</time>
      </trkpt>
      <trkpt lat="43.64393" lon="1.39312">
        <ele>125</ele>
        <time>2025-04-16T10:21:50Z</time>
      </trkpt>
      <trkpt lat="43.64395" lon="1.39311">
        <ele>125</ele>
        <time>2025-04-16T10:21:51Z</time>
      </trkpt>
      <trkpt lat="43.64397" lon="1.39311">
        <ele>125</ele>
        <time>2025-04-16T10:21:52Z</time>
      </trkpt>
      <trkpt lat="43.644" lon="1.3931">
        <ele>125</ele>
        <time>2025-04-16T10:21:53Z</time>
      </trkpt>
      <trkpt lat="43.644" lon="1.3931">
        <ele>125</ele>
        <time>2025-04-16T10:21:54Z</time>
      </trkpt>
      <trkpt lat="43.64403" lon="1.39309">
        <ele>125</ele>
        <time>2025-04-16T10:21:55Z</time>
      </trkpt>
      <trkpt lat="43.64403" lon="1.39309">
        <ele>125</ele>
        <time>2025-04-16T10:21:56Z</time>
      </trkpt>
      <trkpt lat="43.64403" lon="1.39309">
        <ele>125</ele>
        <time>2025-04-16T10:21:57Z</time>
      </trkpt>
      <trkpt lat="43.64403" lon="1.39309">
        <ele>125</ele>
        <time>2025-04-16T10:21:58Z</time>
      </trkpt>
      <trkpt lat="43.64403" lon="1.39309">
        <ele>125</ele>
        <time>2025-04-16T10:21:59Z</time>
      </trkpt>
      <trkpt lat="43.64403" lon="1.39309">
        <ele>125</ele>
        <time>2025-04-16T10:22:00Z</time>
      </trkpt>
      <trkpt lat="43.64401" lon="1.39312">
        <ele>125</ele>
        <time>2025-04-16T10:22:01Z</time>
      </trkpt>
      <trkpt lat="43.64401" lon="1.39312">
        <ele>125</ele>
        <time>2025-04-16T10:22:02Z</time>
      </trkpt>
      <trkpt lat="43.64398" lon="1.39312">
        <ele>125</ele>
        <time>2025-04-16T10:22:03Z</time>
      </trkpt>
      <trkpt lat="43.64398" lon="1.39312">
        <ele>125</ele>
        <time>2025-04-16T10:22:04Z</time>
      </trkpt>
      <trkpt lat="43.64396" lon="1.39314">
        <ele>125</ele>
        <time>2025-04-16T10:22:05Z</time>
      </trkpt>
      <trkpt lat="43.64396" lon="1.39314">
        <ele>125</ele>
        <time>2025-04-16T10:22:06Z</time>
      </trkpt>
      <trkpt lat="43.64393" lon="1.39314">
        <ele>125</ele>
        <time>2025-04-16T10:22:07Z</time>
      </trkpt>
      <trkpt lat="43.64393" lon="1.39314">
        <ele>125</ele>
        <time>2025-04-16T10:22:08Z</time>
      </trkpt>
      <trkpt lat="43.6439" lon="1.39316">
        <ele>125</ele>
        <time>2025-04-16T10:22:09Z</time>
      </trkpt>
      <trkpt lat="43.6439" lon="1.39316">
        <ele>125</ele>
        <time>2025-04-16T10:22:10Z</time>
      </trkpt>
      <trkpt lat="43.64387" lon="1.39317">
        <ele>125</ele>
        <time>2025-04-16T10:22:11Z</time>
      </trkpt>
      <trkpt lat="43.64387" lon="1.39317">
        <ele>125</ele>
        <time>2025-04-16T10:22:12Z</time>
      </trkpt>
      <trkpt lat="43.64385" lon="1.39318">
        <ele>125</ele>
        <time>2025-04-16T10:22:13Z</time>
      </trkpt>
      <trkpt lat="43.64385" lon="1.39318">
        <ele>125</ele>
        <time>2025-04-16T10:22:14Z</time>
      </trkpt>
      <trkpt lat="43.64382" lon="1.39319">
        <ele>125</ele>
        <time>2025-04-16T10:22:15Z</time>
      </trkpt>
      <trkpt lat="43.64382" lon="1.39319">
        <ele>126</ele>
        <time>2025-04-16T10:22:16Z</time>
      </trkpt>
      <trkpt lat="43.6438" lon="1.39319">
        <ele>126</ele>
        <time>2025-04-16T10:22:17Z</time>
      </trkpt>
      <trkpt lat="43.6438" lon="1.39319">
        <ele>126</ele>
        <time>2025-04-16T10:22:18Z</time>
      </trkpt>
      <trkpt lat="43.64378" lon="1.3932">
        <ele>126</ele>
        <time>2025-04-16T10:22:19Z</time>
      </trkpt>
      <trkpt lat="43.64378" lon="1.3932">
        <ele>126</ele>
        <time>2025-04-16T10:22:20Z</time>
      </trkpt>
      <trkpt lat="43.64376" lon="1.3932">
        <ele>126</ele>
        <time>2025-04-16T10:22:21Z</time>
      </trkpt>
      <trkpt lat="43.64376" lon="1.3932">
        <ele>126</ele>
        <time>2025-04-16T10:22:22Z</time>
      </trkpt>
      <trkpt lat="43.64374" lon="1.3932">
        <ele>126</ele>
        <time>2025-04-16T10:22:23Z</time>
      </trkpt>
      <trkpt lat="43.64374" lon="1.3932">
        <ele>126</ele>
        <time>2025-04-16T10:22:24Z</time>
      </trkpt>
      <trkpt lat="43.64372" lon="1.39321">
        <ele>126</ele>
        <time>2025-04-16T10:22:25Z</time>
      </trkpt>
      <trkpt lat="43.64372" lon="1.39321">
        <ele>125</ele>
        <time>2025-04-16T10:22:26Z</time>
      </trkpt>
      <trkpt lat="43.64372" lon="1.39321">
        <ele>125</ele>
        <time>2025-04-16T10:22:27Z</time>
      </trkpt>
      <trkpt lat="43.64371" lon="1.39321">
        <ele>125</ele>
        <time>2025-04-16T10:22:28Z</time>
      </trkpt>
      <trkpt lat="43.64403" lon="1.39309">
        <ele>126</ele>
        <time>2025-04-16T10:23:01Z</time>
      </trkpt>
      <trkpt lat="43.64403" lon="1.39309">
        <ele>126</ele>
        <time>2025-04-16T10:23:02Z</time>
      </trkpt>
      <trkpt lat="43.64403" lon="1.39309">
        <ele>126</ele>
        <time>2025-04-16T10:23:03Z</time>
      </trkpt>
      <trkpt lat="43.64403" lon="1.39309">
        <ele>126</ele>
        <time>2025-04-16T10:23:04Z</time>
      </trkpt>
      <trkpt lat="43.64403" lon="1.39309">
        <ele>126</ele>
        <time>2025-04-16T10:23:05Z</time>
      </trkpt>
      <trkpt lat="43.644" lon="1.39311">
        <ele>126</ele>
        <time>2025-04-16T10:23:06Z</time>
      </trkpt>
      <trkpt lat="43.644" lon="1.39311">
        <ele>126</ele>
        <time>2025-04-16T10:23:07Z</time>
      </trkpt>
      <trkpt lat="43.64397" lon="1.39313">
        <ele>126</ele>
        <time>2025-04-16T10:23:08Z</time>
      </trkpt>
      <trkpt lat="43.64397" lon="1.39313">
        <ele>126</ele>
        <time>2025-04-16T10:23:09Z</time>
      </trkpt>
      <trkpt lat="43.64394" lon="1.39315">
        <ele>126</ele>
        <time>2025-04-16T10:23:10Z</time>
      </trkpt>
      <trkpt lat="43.64394" lon="1.39315">
        <ele>126</ele>
        <time>2025-04-16T10:23:11Z</time>
      </trkpt>
      <trkpt lat="43.64394" lon="1.39315">
        <ele>126</ele>
        <time>2025-04-16T10:23:12Z</time>
      </trkpt>
      <trkpt lat="43.64392" lon="1.39316">
        <ele>126</ele>
        <time>2025-04-16T10:23:13Z</time>
      </trkpt>
      <trkpt lat="43.64392" lon="1.39316">
        <ele>126</ele>
        <time>2025-04-16T10:23:14Z</time>
      </trkpt>
      <trkpt lat="43.64392" lon="1.39316">
        <ele>126</ele>
        <time>2025-04-16T10:23:15Z</time>
      </trkpt>
      <trkpt lat="43.6439" lon="1.39317">
        <ele>126</ele>
        <time>2025-04-16T10:23:16Z</time>
      </trkpt>
      <trkpt lat="43.6439" lon="1.39317">
        <ele>126</ele>
        <time>2025-04-16T10:23:17Z</time>
      </trkpt>
      <trkpt lat="43.64388" lon="1.39318">
        <ele>126</ele>
        <time>2025-04-16T10:23:18Z</time>
      </trkpt>
      <trkpt lat="43.64388" lon="1.39318">
        <ele>126</ele>
        <time>2025-04-16T10:23:19Z</time>
      </trkpt>
      <trkpt lat="43.64386" lon="1.39319">
        <ele>126</ele>
        <time>2025-04-16T10:23:20Z</time>
      </trkpt>
      <trkpt lat="43.64386" lon="1.39319">
        <ele>126</ele>
        <time>2025-04-16T10:23:21Z</time>
      </trkpt>
      <trkpt lat="43.64383" lon="1.3932">
        <ele>126</ele>
        <time>2025-04-16T10:23:22Z</time>
      </trkpt>
      <trkpt lat="43.64383" lon="1.3932">
        <ele>126</ele>
        <time>2025-04-16T10:23:23Z</time>
      </trkpt>
      <trkpt lat="43.64383" lon="1.3932">
        <ele>126</ele>
        <time>2025-04-16T10:23:24Z</time>
      </trkpt>
      <trkpt lat="43.6438" lon="1.3932">
        <ele>126</ele>
        <time>2025-04-16T10:23:25Z</time>
      </trkpt>
      <trkpt lat="43.6438" lon="1.3932">
        <ele>126</ele>
        <time>2025-04-16T10:23:26Z</time>
      </trkpt>
      <trkpt lat="43.6438" lon="1.3932">
        <ele>126</ele>
        <time>2025-04-16T10:23:27Z</time>
      </trkpt>
      <trkpt lat="43.64377" lon="1.3932">
        <ele>126</ele>
        <time>2025-04-16T10:23:28Z</time>
      </trkpt>
      <trkpt lat="43.64377" lon="1.3932">
        <ele>126</ele>
        <time>2025-04-16T10:23:29Z</time>
      </trkpt>
      <trkpt lat="43.64377" lon="1.3932">
        <ele>126</ele>
        <time>2025-04-16T10:23:30Z</time>
      </trkpt>
      <trkpt lat="43.64375" lon="1.39319">
        <ele>126</ele>
        <time>2025-04-16T10:23:31Z</time>
      </trkpt>
      <trkpt lat="43.64375" lon="1.39319">
        <ele>125</ele>
        <time>2025-04-16T10:23:32Z</time>
      </trkpt>
      <trkpt lat="43.64375" lon="1.39319">
        <ele>125</ele>
        <time>2025-04-16T10:23:33Z</time>
      </trkpt>
      <trkpt lat="43.64372" lon="1.39319">
        <ele>125</ele>
        <time>2025-04-16T10:23:34Z</time>
      </trkpt>
      <trkpt lat="43.64372" lon="1.39319">
        <ele>125</ele>
        <time>2025-04-16T10:23:35Z</time>
      </trkpt>
      <trkpt lat="43.64372" lon="1.39319">
        <ele>125</ele>
        <time>2025-04-16T10:23:36Z</time>
      </trkpt>
      <trkpt lat="43.6437" lon="1.3932">
        <ele>125</ele>
        <time>2025-04-16T10:23:37Z</time>
      </trkpt>
      <trkpt lat="43.6437" lon="1.3932">
        <ele>125</ele>
        <time>2025-04-16T10:23:38Z</time>
      </trkpt>
      <trkpt lat="43.6437" lon="1.3932">
        <ele>125</ele>
        <time>2025-04-16T10:23:39Z</time>
      </trkpt>
      <trkpt lat="43.6437" lon="1.3932">
        <ele>125</ele>
        <time>2025-04-16T10:23:40Z</time>
      </trkpt>
      <trkpt lat="43.6437" lon="1.3932">
        <ele>125</ele>
        <time>2025-04-16T10:23:41Z</time>
      </trkpt>
      <trkpt lat="43.6437" lon="1.3932">
        <ele>125</ele>
        <time>2025-04-16T10:23:42Z</time>
      </trkpt>
      <trkpt lat="43.64372" lon="1.39319">
        <ele>125</ele>
        <time>2025-04-16T10:23:43Z</time>
      </trkpt>
      <trkpt lat="43.64372" lon="1.39319">
        <ele>125</ele>
        <time>2025-04-16T10:23:44Z</time>
      </trkpt>
      <trkpt lat="43.64374" lon="1.39319">
        <ele>125</ele>
        <time>2025-04-16T10:23:45Z</time>
      </trkpt>
      <trkpt lat="43.64374" lon="1.39319">
        <ele>125</ele>
        <time>2025-04-16T10:23:46Z</time>
      </trkpt>
      <trkpt lat="43.64376" lon="1.39318">
        <ele>125</ele>
        <time>2025-04-16T10:23:47Z</time>
      </trkpt>
    </trkseg>
  </trk>
</gpx>